W61815 / HA-LWC 7700 Squawk Report (15th of October, 2019)

Aircraft A320 Reg No. HA-LWC Age 9 years old
Model A320 Jet engines 2 First flight 21-05-10
Registered 09-06-10 Rollout 05-10 Delivered 09-06-10
Construction No. 4323 Line No. N/A Series 232
ADSHEX 471F4A Airline name Wizz Air Owner N/A
Airfield based Budapest-Ferihegy~Pest~HA First tracked 2017-07-13 07:23:00
Time Lat Lon Altitude Heading Speed Vertical Rate
2019-10-15 16:12:11 GMT 44.485924 18.469357 4,175 132 192 -128
2019-10-15 16:11:28 GMT 44.512783 18.429899 4,300 133 199 -448
2019-10-15 16:11:22 GMT 44.516602 18.424273 4,325 133 203 -448
2019-10-15 16:11:04 GMT 44.528503 18.406546 4,400 133 212 -512
2019-10-15 16:10:59 GMT 44.531570 18.401970 4,500 133 216 -576
2019-10-15 16:10:49 GMT 44.538483 18.391703 4,625 133 219 -384
2019-10-15 16:10:38 GMT 44.546173 18.380259 4,700 133 219 -384
2019-10-15 16:10:27 GMT 44.554321 18.368029 4,800 132 221 -576
2019-10-15 16:10:01 GMT 44.572556 18.340803 5,100 133 233 -704
2019-10-15 16:09:41 GMT 44.587234 18.318983 5,475 133 234 -1408
2019-10-15 16:09:33 GMT 44.593552 18.309521 5,675 133 234 -1472
2019-10-15 16:08:50 GMT 44.625954 18.261152 6,600 133 241 -1536
2019-10-15 16:08:42 GMT 44.632050 18.252043 6,775 133 244 -1152
2019-10-15 16:08:31 GMT 44.640572 18.239449 7,000 133 246 -1280
2019-10-15 16:08:20 GMT 44.648895 18.226908 7,250 133 249 -1472
2019-10-15 16:08:14 GMT 44.653976 18.219320 7,400 133 249 -1536
2019-10-15 16:08:10 GMT 44.657272 18.214417 7,525 133 249 -1600
2019-10-15 16:07:59 GMT 44.665615 18.201935 7,825 133 249 -1792
2019-10-15 16:07:54 GMT 44.670547 18.194536 8,000 133 247 -1664
2019-10-15 16:07:48 GMT 44.674255 18.188978 8,125 133 247 -1472
2019-10-15 16:07:36 GMT 44.684097 18.174334 8,425 133 247 -1600
2019-10-15 16:07:27 GMT 44.691174 18.163816 8,675 133 248 -1472
2019-10-15 16:07:16 GMT 44.699692 18.151022 8,900 133 249 -1216
2019-10-15 16:07:11 GMT 44.703743 18.144926 9,000 133 250 -1344
2019-10-15 16:07:04 GMT 44.708542 18.137774 9,150 133 250 -1472
2019-10-15 16:07:01 GMT 44.711468 18.133404 9,250 133 250 -1408
2019-10-15 16:06:55 GMT 44.716030 18.126572 9,375 133 252 -1152
2019-10-15 16:06:51 GMT 44.720078 18.120510 9,475 133 253 -1280
2019-10-15 16:06:40 GMT 44.729252 18.106743 9,700 133 254 -1216
2019-10-15 16:06:28 GMT 44.737305 18.094616 9,925 132 255 -1344
2019-10-15 16:06:17 GMT 44.746849 18.080214 10,175 132 255 -1216
2019-10-15 16:06:11 GMT 44.751038 18.073917 10,350 132 256 -1280
2019-10-15 16:06:07 GMT 44.754623 18.068489 10,375 132 256 -1088
2019-10-15 16:06:01 GMT 44.759789 18.060720 10,475 132 256 -1280
2019-10-15 16:05:56 GMT 44.763245 18.055508 10,575 132 256 -1344
2019-10-15 16:05:50 GMT 44.768448 18.047657 10,725 132 256 -1472
2019-10-15 16:05:45 GMT 44.772640 18.041292 10,850 132 256 -1472
2019-10-15 16:05:38 GMT 44.778030 18.033207 11,000 132 255 -1344
2019-10-15 16:05:35 GMT 44.780457 18.029545 11,075 132 255 -1280
2019-10-15 16:05:28 GMT 44.785721 18.021530 11,200 132 256 -1152
2019-10-15 16:05:25 GMT 44.789291 18.016138 11,300 132 256 -1088
2019-10-15 16:05:18 GMT 44.794510 18.008291 11,425 132 258 -1280
2019-10-15 16:05:13 GMT 44.798710 18.002035 11,525 133 258 -1216
2019-10-15 16:05:07 GMT 44.803268 17.995136 11,650 133 258 -1152
2019-10-15 16:05:02 GMT 44.807739 17.988504 11,750 133 259 -1088
2019-10-15 16:04:56 GMT 44.812534 17.981403 11,850 133 259 -1408
2019-10-15 16:04:53 GMT 44.815063 17.977688 11,950 133 258 -1600
2019-10-15 16:04:50 GMT 44.816956 17.974838 12,000 133 258 -1792
2019-10-15 16:04:45 GMT 44.821381 17.968273 12,175 133 256 -2112
2019-10-15 16:04:40 GMT 44.825615 17.961910 12,375 133 253 -2240
2019-10-15 16:04:34 GMT 44.835297 17.947540 12,725 133 248 -2304
2019-10-15 16:04:28 GMT 44.835297 17.947540 12,825 133 246 -1920
2019-10-15 16:04:23 GMT 44.838409 17.942833 12,925 133 246 -1280
2019-10-15 16:04:19 GMT 44.842346 17.936947 13,000 133 247 -320
2019-10-15 16:04:11 GMT 44.848705 17.927343 13,000 132 254 -64
2019-10-15 16:04:08 GMT 44.850586 17.924520 13,000 132 256 -64
2019-10-15 16:04:01 GMT 44.856491 17.915562 13,025 132 260 0
2019-10-15 16:03:56 GMT 44.860382 17.909678 13,025 132 261 0
2019-10-15 16:03:50 GMT 44.865139 17.902424 13,000 132 264 0
2019-10-15 16:03:38 GMT 44.875195 17.887150 13,000 132 275 0
2019-10-15 16:03:29 GMT 44.884277 17.873447 12,975 133 285 0
2019-10-15 16:03:20 GMT 44.891624 17.862295 13,000 133 292 -64
2019-10-15 16:03:08 GMT 44.902843 17.845413 13,000 133 294 64
2019-10-15 16:02:57 GMT 44.913692 17.829002 13,000 132 295 -64
2019-10-15 16:02:46 GMT 44.922722 17.815336 13,000 132 293 0
2019-10-15 16:02:36 GMT 44.932964 17.799793 13,025 132 293 -192
2019-10-15 16:02:27 GMT 44.943581 17.783716 13,100 132 295 -704
2019-10-15 16:02:16 GMT 44.951889 17.771040 13,250 132 297 -960
2019-10-15 16:02:05 GMT 44.961639 17.756130 13,425 132 302 -1024
2019-10-15 16:01:55 GMT 44.970997 17.741848 13,650 132 306 -1088
2019-10-15 16:01:43 GMT 44.982010 17.725067 13,775 132 309 -1216
2019-10-15 16:01:33 GMT 44.991993 17.709827 14,050 132 312 -1600
2019-10-15 16:01:22 GMT 45.002563 17.693808 14,350 132 312 -1920
2019-10-15 16:01:15 GMT 45.013687 17.676802 14,700 132 310 -1920
2019-10-15 16:01:11 GMT 45.013687 17.676802 14,750 132 310 -1920
2019-10-15 16:01:02 GMT 45.023163 17.662418 15,050 132 309 -1984
2019-10-15 16:00:53 GMT 45.031189 17.650139 15,350 132 307 -2176
2019-10-15 16:00:41 GMT 45.044086 17.630510 15,750 133 307 -1408
2019-10-15 16:00:35 GMT 45.048843 17.623247 15,875 132 307 -1984
2019-10-15 16:00:29 GMT 45.054016 17.615400 16,025 132 308 -1856
2019-10-15 16:00:20 GMT 45.064041 17.600098 16,350 132 307 -1664
2019-10-15 16:00:08 GMT 45.074902 17.583551 16,600 132 310 -1152
2019-10-15 15:59:58 GMT 45.083954 17.569689 16,825 132 314 -1408
2019-10-15 15:59:47 GMT 45.095169 17.552555 17,025 132 324 -1216
2019-10-15 15:59:38 GMT 45.106018 17.535946 17,275 132 338 -1344
2019-10-15 15:59:32 GMT 45.110703 17.528753 17,375 132 338 -1344
2019-10-15 15:59:27 GMT 45.116821 17.519335 17,500 132 352 -1216
2019-10-15 15:59:24 GMT 45.119545 17.515156 17,550 132 352 -1216
2019-10-15 15:59:16 GMT 45.128860 17.500698 17,725 132 361 -1280
2019-10-15 15:59:05 GMT 45.141403 17.481211 17,925 132 372 -1216
2019-10-15 15:58:54 GMT 45.159027 17.454006 18,275 132 390 -1472
2019-10-15 15:58:42 GMT 45.168892 17.438719 18,475 132 394 -2496
2019-10-15 15:58:39 GMT 45.172348 17.433407 18,725 132 397 -3008
2019-10-15 15:58:32 GMT 45.180576 17.420631 19,025 132 397 -3008
2019-10-15 15:58:28 GMT 45.186443 17.411522 19,300 132 399 -2944
2019-10-15 15:58:22 GMT 45.193222 17.400970 19,575 132 402 -3008
2019-10-15 15:58:18 GMT 45.198853 17.392273 19,825 132 403 -3328
2019-10-15 15:58:12 GMT 45.206177 17.380894 20,150 132 404 -3456
2019-10-15 15:58:07 GMT 45.212696 17.370859 20,425 132 405 -3328
2019-10-15 15:58:01 GMT 45.220146 17.359337 20,725 132 408 -2688
2019-10-15 15:57:49 GMT 45.234924 17.336491 21,200 132 413 -2496
2019-10-15 15:57:40 GMT 45.247604 17.317135 21,600 132 416 -2240
2019-10-15 15:57:30 GMT 45.260788 17.296862 21,925 131 421 -1856
2019-10-15 15:57:25 GMT 45.265961 17.288231 22,050 129 423 -1984
2019-10-15 15:57:19 GMT 45.273788 17.273844 22,300 124 429 -2496
2019-10-15 15:57:08 GMT 45.285599 17.248199 22,850 120 430 -3776
2019-10-15 15:57:01 GMT 45.292999 17.230314 23,325 120 429 -2368
2019-10-15 15:56:58 GMT 45.296036 17.222965 23,525 120 428 -3520
2019-10-15 15:56:49 GMT 45.305012 17.201105 23,900 120 431 -2560
2019-10-15 15:56:46 GMT 45.307243 17.195681 25,825 120 448 -1920
2019-10-15 15:56:39 GMT 45.314461 17.178129 24,400 120 431 -2560
2019-10-15 15:56:36 GMT 45.317322 17.171173 24,450 120 431 -2560
2019-10-15 15:56:26 GMT 45.328053 17.144970 25,825 120 448 -1920
2019-10-15 15:56:18 GMT 45.336899 17.123398 25,400 120 433 -2560
2019-10-15 15:56:15 GMT 45.338573 17.119246 25,300 120 435 -2240
2019-10-15 15:56:07 GMT 45.347187 17.098076 25,600 120 439 -1728
2019-10-15 15:55:59 GMT 45.360489 17.065365 25,925 120 445 -1792
2019-10-15 15:55:54 GMT 45.360489 17.065365 26,100 120 448 -1920
2019-10-15 15:55:45 GMT 45.374588 17.030901 26,450 120 451 -2688
2019-10-15 15:55:37 GMT 45.377701 17.023315 27,225 120 449 -3648
2019-10-15 15:55:33 GMT 45.381866 17.013132 26,850 120 448 -3840
2019-10-15 15:55:30 GMT 45.385117 17.005070 27,225 120 447 -3264
2019-10-15 15:55:25 GMT 45.393459 16.984730 27,675 120 446 -3264
2019-10-15 15:55:19 GMT 45.396652 16.976885 29,650 120 446 -3264
2019-10-15 15:55:16 GMT 45.401001 16.966307 27,900 120 446 -3264
2019-10-15 15:55:12 GMT 45.404617 16.957397 28,100 120 443 -4096
2019-10-15 15:55:08 GMT 45.408188 16.948635 28,325 120 443 -3968
2019-10-15 15:55:04 GMT 45.413010 16.936832 28,625 119 442 -4096
2019-10-15 15:55:00 GMT 45.416290 16.928688 28,850 120 441 -3840
2019-10-15 15:54:49 GMT 45.435169 16.882368 29,500 120 445 -1792
2019-10-15 15:54:42 GMT 45.435169 16.882368 29,650 120 445 -1792
2019-10-15 15:54:39 GMT 45.438057 16.875269 29,700 120 447 -1856
2019-10-15 15:54:31 GMT 45.449570 16.846947 30,050 119 450 -2688
2019-10-15 15:54:28 GMT 45.449570 16.846947 32,325 119 440 -2944
2019-10-15 15:54:19 GMT 45.462685 16.814642 30,800 120 447 -3456
2019-10-15 15:54:11 GMT 45.467152 16.803656 31,550 119 443 -3456
2019-10-15 15:54:06 GMT 45.471634 16.792603 31,775 120 445 -3200
2019-10-15 15:54:00 GMT 45.478134 16.776581 31,625 119 444 -3392
2019-10-15 15:53:56 GMT 45.483631 16.763126 31,925 119 442 -3392
2019-10-15 15:53:49 GMT 45.488892 16.750065 32,225 120 441 -3200
2019-10-15 15:53:45 GMT 45.493240 16.739370 33,350 120 439 -2432
2019-10-15 15:53:39 GMT 45.500381 16.721781 32,900 120 439 -2752
2019-10-15 15:53:34 GMT 45.504440 16.711813 32,950 120 439 -2816
2019-10-15 15:53:31 GMT 45.507248 16.704908 33,075 119 440 -2368
2019-10-15 15:53:27 GMT 45.511471 16.694395 33,200 120 439 -2624
2019-10-15 15:53:24 GMT 45.514915 16.685888 33,375 120 439 -2432
2019-10-15 15:53:18 GMT 45.521431 16.669809 33,650 119 440 -2432
2019-10-15 15:53:15 GMT 45.526474 16.657301 34,150 119 441 -2304
2019-10-15 15:53:06 GMT 45.532837 16.641605 34,100 119 441 -2432
2019-10-15 15:53:01 GMT 45.541821 16.619301 34,900 119 442 -1856
2019-10-15 15:52:58 GMT 45.541821 16.619301 34,400 119 442 -1664
2019-10-15 15:52:55 GMT 45.543732 16.614468 34,450 119 443 -1536
2019-10-15 15:52:52 GMT 45.547440 16.605232 34,525 119 445 -1216
2019-10-15 15:52:45 GMT 45.554352 16.588217 35,000 119 448 -1280
2019-10-15 15:52:41 GMT 45.558289 16.578369 34,850 119 449 -1344
2019-10-15 15:52:34 GMT 45.565937 16.559418 34,900 119 449 -1216
2019-10-15 15:52:31 GMT 45.573059 16.541702 34,975 119 451 0
2019-10-15 15:52:23 GMT 45.580032 16.524376 35,000 119 452 -64
2019-10-15 15:52:15 GMT 45.585983 16.509638 35,000 119 451 0
2019-10-15 15:52:12 GMT 45.591156 16.496641 35,000 119 451 -64
2019-10-15 15:52:09 GMT 45.596786 16.482708 35,025 119 452 -64
2019-10-15 15:52:04 GMT 45.600357 16.473730 35,025 119 452 -64
2019-10-15 15:51:57 GMT 45.604900 16.462395 35,025 119 452 -64
2019-10-15 15:51:52 GMT 45.609695 16.450418 35,025 119 452 -64
2019-10-15 15:51:48 GMT 45.614071 16.439461 35,025 119 452 0
2019-10-15 15:51:45 GMT 45.617523 16.430859 35,025 119 452 -64
2019-10-15 15:51:42 GMT 45.620586 16.423187 35,025 119 452 0
2019-10-15 15:51:37 GMT 45.626129 16.409180 35,025 119 453 0
2019-10-15 15:51:32 GMT 45.631439 16.395956 35,025 119 453 64
2019-10-15 15:51:25 GMT 45.637070 16.381887 35,025 119 453 0
2019-10-15 15:51:21 GMT 45.641396 16.371140 35,025 119 453 0
2019-10-15 15:51:18 GMT 45.645168 16.361664 35,025 119 452 0
2019-10-15 15:51:12 GMT 45.651081 16.346764 35,025 119 454 -64
2019-10-15 15:51:09 GMT 45.653641 16.340446 35,025 119 454 -64
2019-10-15 15:51:05 GMT 45.657642 16.330353 35,025 119 454 64
2019-10-15 15:51:02 GMT 45.664299 16.313736 35,025 119 454 0
2019-10-15 15:50:59 GMT 45.664299 16.313736 35,025 119 454 0
2019-10-15 15:50:54 GMT 45.669979 16.299385 35,025 119 454 64
2019-10-15 15:50:51 GMT 45.672913 16.291969 35,025 119 454 64
2019-10-15 15:50:47 GMT 45.677994 16.279261 35,025 119 454 64
2019-10-15 15:50:43 GMT 45.680824 16.272194 35,025 119 455 0
2019-10-15 15:50:39 GMT 45.685410 16.260635 35,025 119 455 0
2019-10-15 15:50:33 GMT 45.691254 16.245895 35,025 119 454 0
2019-10-15 15:50:28 GMT 45.696442 16.232836 35,025 119 454 0
2019-10-15 15:50:23 GMT 45.702938 16.216438 35,025 119 454 64
2019-10-15 15:50:18 GMT 45.707127 16.205933 35,025 119 454 64
2019-10-15 15:50:12 GMT 45.713287 16.190365 35,000 119 454 64
2019-10-15 15:50:07 GMT 45.718323 16.177635 35,000 119 454 64
2019-10-15 15:50:01 GMT 45.724319 16.162563 35,000 119 455 0
2019-10-15 15:49:57 GMT 45.728497 16.151962 35,000 119 454 0
2019-10-15 15:49:49 GMT 45.736645 16.131500 35,000 119 455 0
2019-10-15 15:49:45 GMT 45.741020 16.120445 35,000 119 455 0
2019-10-15 15:49:39 GMT 45.747162 16.104996 35,000 119 454 0
2019-10-15 15:49:36 GMT 45.749771 16.098335 35,000 119 454 0
2019-10-15 15:49:29 GMT 45.757217 16.079590 35,000 119 454 0
2019-10-15 15:49:26 GMT 45.761314 16.069221 35,000 119 453 0
2019-10-15 15:49:18 GMT 45.769135 16.049446 35,000 119 453 0
2019-10-15 15:49:15 GMT 45.771370 16.043747 35,000 119 453 0
2019-10-15 15:49:12 GMT 45.775375 16.033585 35,000 119 453 0
2019-10-15 15:49:07 GMT 45.781612 16.017792 35,000 119 453 0
2019-10-15 15:49:03 GMT 45.784470 16.010632 35,000 119 453 0
2019-10-15 15:48:57 GMT 45.790409 15.995544 35,000 119 453 -64
2019-10-15 15:48:54 GMT 45.793396 15.987921 35,000 119 453 0
2019-10-15 15:48:51 GMT 45.796646 15.979681 35,000 119 453 0
2019-10-15 15:48:47 GMT 45.800930 15.968765 35,000 119 453 0
2019-10-15 15:48:43 GMT 45.805481 15.957240 35,000 119 453 -64
2019-10-15 15:48:40 GMT 45.808937 15.948372 35,000 119 453 -64
2019-10-15 15:48:34 GMT 45.814804 15.933540 35,000 119 454 0
2019-10-15 15:48:30 GMT 45.818062 15.925232 35,000 119 453 0
2019-10-15 15:48:25 GMT 45.823059 15.912490 35,000 119 453 0
2019-10-15 15:48:22 GMT 45.826584 15.903534 35,000 119 453 0
2019-10-15 15:48:19 GMT 45.834091 15.884489 35,000 119 452 64
2019-10-15 15:48:14 GMT 45.834091 15.884489 35,000 119 452 64
2019-10-15 15:48:10 GMT 45.839722 15.870153 35,000 119 452 64
2019-10-15 15:48:07 GMT 45.841805 15.864944 35,000 119 452 64
2019-10-15 15:48:03 GMT 45.845718 15.854946 35,000 119 452 64
2019-10-15 15:48:00 GMT 45.850510 15.842766 34,975 119 452 64
2019-10-15 15:47:57 GMT 45.852402 15.837931 35,000 119 451 -64
2019-10-15 15:47:53 GMT 45.859039 15.821116 35,000 119 451 -64
2019-10-15 15:47:47 GMT 45.862846 15.811455 35,000 119 445 64
2019-10-15 15:47:42 GMT 45.867233 15.800350 35,025 119 446 -64
2019-10-15 15:47:39 GMT 45.874374 15.782128 35,025 119 446 -64
2019-10-15 15:47:36 GMT 45.874374 15.782128 35,025 119 445 64
2019-10-15 15:47:31 GMT 45.878765 15.770943 35,025 119 442 0
2019-10-15 15:47:28 GMT 45.881973 15.762701 35,000 119 443 0
2019-10-15 15:47:24 GMT 45.886913 15.750206 35,000 119 443 0
2019-10-15 15:47:20 GMT 45.890442 15.741131 35,000 119 443 0
2019-10-15 15:47:17 GMT 45.892452 15.735992 35,000 119 443 0
2019-10-15 15:47:12 GMT 45.897720 15.722574 35,000 119 443 0
2019-10-15 15:47:08 GMT 45.902618 15.709980 35,000 119 442 0
2019-10-15 15:47:05 GMT 45.904137 15.706055 35,000 119 443 0
2019-10-15 15:47:01 GMT 45.908047 15.696098 35,000 119 442 0
2019-10-15 15:46:57 GMT 45.912735 15.684122 35,000 119 443 0
2019-10-15 15:46:54 GMT 45.915710 15.676552 35,000 119 443 0
2019-10-15 15:46:51 GMT 45.919964 15.665611 35,000 119 443 0
2019-10-15 15:46:46 GMT 45.923317 15.657028 35,000 119 443 0
2019-10-15 15:46:43 GMT 45.926788 15.648082 35,000 119 443 0
2019-10-15 15:46:37 GMT 45.933372 15.631210 35,000 119 442 0
2019-10-15 15:46:33 GMT 45.936909 15.622078 35,000 119 441 0
2019-10-15 15:46:27 GMT 45.941986 15.609027 35,000 119 441 64
2019-10-15 15:46:24 GMT 45.945557 15.599916 35,000 119 441 64
2019-10-15 15:46:17 GMT 45.952042 15.583145 35,000 119 441 0
2019-10-15 15:46:14 GMT 45.954880 15.575867 34,975 119 440 0
2019-10-15 15:46:07 GMT 45.965355 15.548882 35,000 119 439 -64
2019-10-15 15:46:01 GMT 45.968262 15.541434 35,000 119 439 0
2019-10-15 15:45:54 GMT 45.974850 15.524368 35,000 119 439 0
2019-10-15 15:45:46 GMT 45.983093 15.503116 35,000 119 439 -64
2019-10-15 15:45:43 GMT 45.986023 15.495479 35,025 119 439 -128
2019-10-15 15:45:40 GMT 45.988998 15.487842 35,025 119 439 -64
2019-10-15 15:45:37 GMT 45.992447 15.478981 35,025 118 439 -64
2019-10-15 15:45:33 GMT 45.995865 15.470157 35,025 118 439 -64
2019-10-15 15:45:29 GMT 45.999435 15.460845 35,025 118 442 -64
2019-10-15 15:45:24 GMT 46.004654 15.447313 35,025 118 442 -64
2019-10-15 15:45:21 GMT 46.008041 15.438538 35,025 118 442 0
2019-10-15 15:45:16 GMT 46.013908 15.423294 35,025 118 446 64
2019-10-15 15:45:13 GMT 46.017517 15.413885 35,000 118 448 64
2019-10-15 15:45:10 GMT 46.019028 15.409933 35,000 118 448 64
2019-10-15 15:45:05 GMT 46.023685 15.397820 35,000 118 452 128
2019-10-15 15:45:02 GMT 46.027596 15.387726 34,975 119 455 64
2019-10-15 15:44:59 GMT 46.030014 15.381409 34,975 119 455 0
2019-10-15 15:44:51 GMT 46.038300 15.360026 35,000 118 458 64
2019-10-15 15:44:48 GMT 46.040726 15.353662 35,000 118 458 64
2019-10-15 15:44:41 GMT 46.048920 15.332426 35,000 118 459 64
2019-10-15 15:44:38 GMT 46.051392 15.325995 35,000 118 459 64
2019-10-15 15:44:34 GMT 46.056412 15.312950 34,975 118 460 64
2019-10-15 15:44:28 GMT 46.062149 15.297926 34,975 118 460 0
2019-10-15 15:44:25 GMT 46.064804 15.290959 34,975 118 460 -64
2019-10-15 15:44:20 GMT 46.070282 15.276764 34,975 118 460 -64
2019-10-15 15:44:16 GMT 46.073776 15.267580 35,000 118 460 -64
2019-10-15 15:44:12 GMT 46.077576 15.257598 35,000 118 459 -64
2019-10-15 15:44:05 GMT 46.088745 15.228391 35,000 118 459 0
2019-10-15 15:43:59 GMT 46.091949 15.220017 35,000 118 459 0
2019-10-15 15:43:54 GMT 46.095932 15.209566 35,000 118 459 0
2019-10-15 15:43:51 GMT 46.099045 15.201394 35,000 118 458 -64
2019-10-15 15:43:48 GMT 46.102730 15.191689 35,000 118 458 -64
2019-10-15 15:43:45 GMT 46.105522 15.184410 35,000 118 458 0
2019-10-15 15:43:41 GMT 46.109573 15.173767 35,000 118 458 0
2019-10-15 15:43:38 GMT 46.112133 15.167038 35,000 118 458 0
2019-10-15 15:43:35 GMT 46.116322 15.156120 35,000 118 458 64
2019-10-15 15:43:31 GMT 46.124935 15.133667 35,000 118 458 0
2019-10-15 15:43:26 GMT 46.124935 15.133667 35,000 118 458 0
2019-10-15 15:43:21 GMT 46.129669 15.121207 35,000 118 459 0
2019-10-15 15:43:16 GMT 46.135757 15.105397 35,000 118 459 -64
2019-10-15 15:43:10 GMT 46.145512 15.079834 35,000 118 459 -64
2019-10-15 15:43:03 GMT 46.148350 15.072418 35,000 118 459 -64
2019-10-15 15:42:58 GMT 46.154068 15.057433 35,025 118 459 -64
2019-10-15 15:42:53 GMT 46.157959 15.047183 35,025 118 459 0
2019-10-15 15:42:50 GMT 46.161804 15.037068 35,025 118 459 64
2019-10-15 15:42:47 GMT 46.165375 15.027756 35,025 118 459 64
2019-10-15 15:42:43 GMT 46.169765 15.016182 35,000 118 459 64
2019-10-15 15:42:40 GMT 46.172512 15.008972 35,000 118 459 64
2019-10-15 15:42:34 GMT 46.178890 14.992149 34,975 118 460 0
2019-10-15 15:42:31 GMT 46.185638 14.974503 35,000 118 461 0
2019-10-15 15:42:27 GMT 46.185638 14.974503 35,000 118 460 0
2019-10-15 15:42:24 GMT 46.188538 14.966795 34,975 118 462 0
2019-10-15 15:42:21 GMT 46.191040 14.960289 35,000 118 461 -64
2019-10-15 15:42:17 GMT 46.195087 14.949646 34,975 118 463 0
2019-10-15 15:42:12 GMT 46.201584 14.932564 35,000 118 461 0
2019-10-15 15:42:09 GMT 46.208542 14.914215 35,000 118 461 -64
2019-10-15 15:42:05 GMT 46.208542 14.914215 35,000 118 463 64
2019-10-15 15:42:02 GMT 46.210499 14.909134 35,000 118 461 0
2019-10-15 15:41:59 GMT 46.214687 14.898079 35,000 118 461 0
2019-10-15 15:41:55 GMT 46.217575 14.890526 35,000 118 461 -64
2019-10-15 15:41:50 GMT 46.222778 14.876761 35,000 118 461 -64
2019-10-15 15:41:46 GMT 46.227489 14.864365 35,025 118 460 -64
2019-10-15 15:41:39 GMT 46.234406 14.846147 35,025 118 460 -64
2019-10-15 15:41:36 GMT 46.241734 14.826668 35,025 118 461 0
2019-10-15 15:41:28 GMT 46.250439 14.803665 35,000 118 461 0
2019-10-15 15:41:23 GMT 46.250439 14.803665 35,000 118 462 0
2019-10-15 15:41:19 GMT 46.254913 14.791818 35,000 118 462 0
2019-10-15 15:41:16 GMT 46.257423 14.785194 35,000 118 463 0
2019-10-15 15:41:13 GMT 46.261276 14.775004 34,925 118 463 64
2019-10-15 15:41:09 GMT 46.264893 14.765357 34,975 118 463 0
2019-10-15 15:41:05 GMT 46.268509 14.755844 34,975 118 463 0
2019-10-15 15:41:02 GMT 46.271992 14.746674 35,000 118 463 192
2019-10-15 15:40:58 GMT 46.275742 14.736685 35,000 118 463 128
2019-10-15 15:40:55 GMT 46.278900 14.728379 34,875 118 461 832
2019-10-15 15:40:51 GMT 46.283585 14.715912 34,950 118 461 704
2019-10-15 15:40:47 GMT 46.290428 14.697784 34,875 118 461 960
2019-10-15 15:40:40 GMT 46.295547 14.684120 34,825 118 461 960
2019-10-15 15:40:37 GMT 46.296944 14.680344 34,775 118 461 896
2019-10-15 15:40:34 GMT 46.300827 14.670098 34,300 118 461 960
2019-10-15 15:40:29 GMT 46.306778 14.654154 34,650 118 461 896
2019-10-15 15:40:25 GMT 46.309700 14.646355 34,600 118 461 960
2019-10-15 15:40:21 GMT 46.314217 14.634407 34,500 118 461 960
2019-10-15 15:40:18 GMT 46.316254 14.628966 34,450 118 461 960
2019-10-15 15:40:15 GMT 46.320454 14.617653 34,300 118 461 1088
2019-10-15 15:40:11 GMT 46.324631 14.606457 34,350 118 461 1152
2019-10-15 15:40:07 GMT 46.332367 14.585891 34,250 118 461 1152
2019-10-15 15:40:03 GMT 46.332367 14.585891 34,225 118 462 1088
2019-10-15 15:40:00 GMT 46.335911 14.576385 34,150 118 462 1088
2019-10-15 15:39:57 GMT 46.341404 14.561691 34,075 118 462 832
2019-10-15 15:39:54 GMT 46.346649 14.547640 34,000 118 462 768
2019-10-15 15:39:48 GMT 46.346649 14.547640 34,000 118 462 128
2019-10-15 15:39:45 GMT 46.350712 14.536835 34,000 118 463 64
2019-10-15 15:39:37 GMT 46.362770 14.504494 34,000 118 463 0
2019-10-15 15:39:33 GMT 46.362770 14.504494 34,000 118 463 0
2019-10-15 15:39:30 GMT 46.369675 14.486010 34,000 118 463 0
2019-10-15 15:39:22 GMT 46.373245 14.476341 34,000 118 463 0
2019-10-15 15:39:17 GMT 46.378876 14.461304 34,000 118 463 0
2019-10-15 15:39:14 GMT 46.382835 14.450592 34,000 118 463 -64
2019-10-15 15:39:11 GMT 46.384789 14.445442 34,000 118 463 -64
2019-10-15 15:39:05 GMT 46.391212 14.428207 34,000 118 462 0
2019-10-15 15:39:01 GMT 46.394753 14.418732 34,000 118 461 0
2019-10-15 15:38:56 GMT 46.401314 14.401016 34,000 118 461 0
2019-10-15 15:38:53 GMT 46.403412 14.395454 34,000 118 461 0
2019-10-15 15:38:50 GMT 46.405563 14.389678 34,000 118 461 0
2019-10-15 15:38:47 GMT 46.409370 14.379456 34,000 118 461 0
2019-10-15 15:38:44 GMT 46.412163 14.371971 34,000 118 461 0
2019-10-15 15:38:41 GMT 46.415977 14.361740 34,000 118 460 0
2019-10-15 15:38:34 GMT 46.423660 14.341141 34,000 118 460 0
2019-10-15 15:38:31 GMT 46.425243 14.336746 34,000 118 460 0
2019-10-15 15:38:28 GMT 46.428268 14.328717 34,000 118 460 0
2019-10-15 15:38:25 GMT 46.431656 14.319540 34,000 118 462 0
2019-10-15 15:38:22 GMT 46.438934 14.299979 34,000 118 462 0
2019-10-15 15:38:17 GMT 46.438934 14.299979 34,000 118 462 0
2019-10-15 15:38:11 GMT 46.449776 14.270691 34,000 118 463 0
2019-10-15 15:38:07 GMT 46.449776 14.270691 33,600 117 463 896
2019-10-15 15:38:04 GMT 46.452393 14.263603 34,000 118 463 0
2019-10-15 15:38:01 GMT 46.455505 14.255163 34,000 118 463 0
2019-10-15 15:37:58 GMT 46.458847 14.246186 34,000 118 463 0
2019-10-15 15:37:55 GMT 46.460995 14.240410 34,000 118 464 0
2019-10-15 15:37:52 GMT 46.464432 14.231046 34,000 118 464 0
2019-10-15 15:37:48 GMT 46.468910 14.218918 34,000 118 465 64
2019-10-15 15:37:45 GMT 46.471664 14.211485 34,000 118 465 0
2019-10-15 15:37:41 GMT 46.476700 14.197752 34,000 118 465 0
2019-10-15 15:37:38 GMT 46.479523 14.190147 33,975 118 465 0
2019-10-15 15:37:33 GMT 46.483887 14.178258 34,000 118 465 64
2019-10-15 15:37:30 GMT 46.487045 14.169684 34,000 117 464 192
2019-10-15 15:37:27 GMT 46.490250 14.160908 33,950 117 464 384
2019-10-15 15:37:24 GMT 46.493114 14.153137 33,950 117 463 512
2019-10-15 15:37:20 GMT 46.498306 14.138935 33,900 117 463 832
2019-10-15 15:37:16 GMT 46.500610 14.132607 33,150 117 463 832
2019-10-15 15:37:12 GMT 46.507549 14.113655 33,775 117 463 832
2019-10-15 15:37:05 GMT 46.511719 14.102225 33,700 117 463 832
2019-10-15 15:37:02 GMT 46.516342 14.089698 33,650 117 463 896
2019-10-15 15:36:59 GMT 46.518585 14.083468 33,425 118 463 960
2019-10-15 15:36:55 GMT 46.522614 14.072481 33,550 117 463 896
2019-10-15 15:36:51 GMT 46.526775 14.061264 33,425 117 463 960
2019-10-15 15:36:47 GMT 46.529938 14.052544 33,400 118 462 960
2019-10-15 15:36:44 GMT 46.533325 14.043341 33,375 118 462 1024
2019-10-15 15:36:40 GMT 46.537575 14.031807 33,300 118 462 960
2019-10-15 15:36:35 GMT 46.541794 14.020430 33,225 118 462 960
2019-10-15 15:36:32 GMT 46.544724 14.012459 33,200 118 462 960
2019-10-15 15:36:29 GMT 46.548794 14.001526 33,125 118 461 896
2019-10-15 15:36:26 GMT 46.551353 13.994591 33,000 118 459 0
2019-10-15 15:36:22 GMT 46.555161 13.984457 33,050 118 460 704
2019-10-15 15:36:18 GMT 46.559647 13.972399 33,000 118 460 320
2019-10-15 15:36:13 GMT 46.564995 13.957993 33,000 118 459 0
2019-10-15 15:36:10 GMT 46.567566 13.951163 33,000 118 459 0
2019-10-15 15:36:07 GMT 46.570766 13.942680 33,000 118 458 64
2019-10-15 15:36:04 GMT 46.574890 13.931736 33,000 118 458 64
2019-10-15 15:36:00 GMT 46.578541 13.922012 32,975 118 458 64
2019-10-15 15:35:53 GMT 46.584171 13.907181 32,975 118 458 64
2019-10-15 15:35:49 GMT 46.588943 13.894490 32,975 118 458 0
2019-10-15 15:35:44 GMT 46.593437 13.882736 32,975 118 459 -64
2019-10-15 15:35:41 GMT 46.596634 13.874259 32,975 118 459 -128
2019-10-15 15:35:35 GMT 46.604370 13.853626 33,000 118 458 -128
2019-10-15 15:35:31 GMT 46.606979 13.846726 33,000 118 459 -64
2019-10-15 15:35:28 GMT 46.611126 13.835564 33,000 117 458 -64
2019-10-15 15:35:24 GMT 46.613434 13.829175 33,000 117 459 -64
2019-10-15 15:35:21 GMT 46.616592 13.820533 33,000 117 458 -64
2019-10-15 15:35:17 GMT 46.621323 13.807274 33,000 116 459 -64
2019-10-15 15:35:14 GMT 46.624069 13.799377 33,000 116 459 -64
2019-10-15 15:35:11 GMT 46.626022 13.793603 33,000 115 459 0
2019-10-15 15:35:08 GMT 46.629913 13.782081 33,000 114 459 0
2019-10-15 15:35:05 GMT 46.631748 13.776443 33,000 115 459 0
2019-10-15 15:35:02 GMT 46.635521 13.764702 33,000 114 459 0
2019-10-15 15:34:59 GMT 46.640594 13.748840 33,000 114 459 64
2019-10-15 15:34:53 GMT 46.642548 13.742825 33,000 114 460 -64
2019-10-15 15:34:49 GMT 46.646393 13.730833 33,000 114 459 64
2019-10-15 15:34:46 GMT 46.649460 13.721120 33,000 114 460 64
2019-10-15 15:34:43 GMT 46.652847 13.710603 33,000 114 460 0
2019-10-15 15:34:40 GMT 46.655350 13.702835 33,000 114 460 0
2019-10-15 15:34:35 GMT 46.658569 13.692783 33,000 114 460 0
2019-10-15 15:34:32 GMT 46.662643 13.679988 33,000 114 460 0
2019-10-15 15:34:28 GMT 46.665592 13.670700 33,000 114 460 0
2019-10-15 15:34:25 GMT 46.667862 13.663576 33,000 114 460 0
2019-10-15 15:34:22 GMT 46.670654 13.654800 33,000 114 459 0
2019-10-15 15:34:18 GMT 46.674717 13.642067 33,000 114 460 0
2019-10-15 15:34:14 GMT 46.678581 13.629982 33,000 114 460 0
2019-10-15 15:34:11 GMT 46.684772 13.610413 33,000 114 459 0
2019-10-15 15:34:06 GMT 46.684772 13.610413 33,000 114 460 0
2019-10-15 15:34:03 GMT 46.688217 13.599564 33,000 114 459 0
2019-10-15 15:34:00 GMT 46.690338 13.592901 33,000 114 459 0
2019-10-15 15:33:57 GMT 46.693478 13.582947 33,000 114 459 64
2019-10-15 15:33:53 GMT 46.697666 13.569695 33,000 114 459 64
2019-10-15 15:33:48 GMT 46.700974 13.559258 33,000 114 459 64
2019-10-15 15:33:45 GMT 46.704742 13.547310 33,000 114 459 0
2019-10-15 15:33:42 GMT 46.707069 13.539825 33,000 114 459 0
2019-10-15 15:33:38 GMT 46.709747 13.531338 33,000 114 459 0
2019-10-15 15:33:34 GMT 46.713272 13.520151 33,000 114 459 0
2019-10-15 15:33:30 GMT 46.719780 13.499588 33,000 114 460 0
2019-10-15 15:33:27 GMT 46.719780 13.499588 33,000 114 460 0
2019-10-15 15:33:23 GMT 46.723022 13.489268 33,000 114 460 0
2019-10-15 15:33:20 GMT 46.725220 13.482301 33,000 114 460 0
2019-10-15 15:33:17 GMT 46.729111 13.469975 33,000 114 462 0
2019-10-15 15:33:13 GMT 46.732765 13.458321 33,000 114 462 0
2019-10-15 15:33:10 GMT 46.734055 13.454233 33,000 114 462 0
2019-10-15 15:33:06 GMT 46.738129 13.441304 33,000 114 462 0
2019-10-15 15:33:00 GMT 46.744217 13.422077 33,000 114 462 0
2019-10-15 15:32:57 GMT 46.746082 13.416161 33,000 114 463 0
2019-10-15 15:32:54 GMT 46.748749 13.407675 33,000 114 463 0
2019-10-15 15:32:51 GMT 46.752228 13.396660 33,000 114 462 0
2019-10-15 15:32:48 GMT 46.755390 13.386635 33,000 114 462 0
2019-10-15 15:32:45 GMT 46.759003 13.375185 33,000 114 462 -64
2019-10-15 15:32:38 GMT 46.763351 13.361298 33,000 114 462 0
2019-10-15 15:32:35 GMT 46.766052 13.352852 33,000 114 460 0
2019-10-15 15:32:29 GMT 46.771687 13.334930 33,000 114 460 0
2019-10-15 15:32:24 GMT 46.775345 13.323267 33,000 114 459 0
2019-10-15 15:32:17 GMT 46.781204 13.304711 33,000 114 458 64
2019-10-15 15:32:14 GMT 46.784500 13.294127 33,000 114 458 0
2019-10-15 15:32:07 GMT 46.790817 13.274162 33,000 114 456 0
2019-10-15 15:32:03 GMT 46.794029 13.263863 33,000 114 448 0
2019-10-15 15:31:56 GMT 46.800842 13.242277 33,000 114 451 0
2019-10-15 15:31:52 GMT 46.804317 13.231247 33,000 114 451 0
2019-10-15 15:31:46 GMT 46.811535 13.208313 33,000 114 447 -64
2019-10-15 15:31:43 GMT 46.811535 13.208313 33,000 114 446 -64
2019-10-15 15:31:36 GMT 46.817631 13.188744 33,000 114 434 0
2019-10-15 15:31:33 GMT 46.820240 13.180573 33,025 114 440 -64
2019-10-15 15:31:23 GMT 46.831375 13.144941 33,000 114 434 64
2019-10-15 15:31:15 GMT 46.835228 13.132645 33,000 114 434 0
2019-10-15 15:31:12 GMT 46.840488 13.115685 33,000 114 434 0
2019-10-15 15:31:04 GMT 46.844330 13.103407 33,000 114 434 0
2019-10-15 15:31:01 GMT 46.847488 13.093358 33,000 114 434 0
2019-10-15 15:30:57 GMT 46.850784 13.082841 33,000 114 434 0
2019-10-15 15:30:54 GMT 46.852734 13.076546 33,025 114 432 0
2019-10-15 15:30:50 GMT 46.859116 13.056045 33,000 114 429 0
2019-10-15 15:30:43 GMT 46.862228 13.046064 33,025 114 427 0
2019-10-15 15:30:40 GMT 46.864185 13.039810 33,025 114 428 0
2019-10-15 15:30:37 GMT 46.867023 13.030609 33,025 114 427 0
2019-10-15 15:30:33 GMT 46.870514 13.019433 33,000 114 424 64
2019-10-15 15:30:29 GMT 46.872986 13.011383 33,000 114 424 64
2019-10-15 15:30:25 GMT 46.876335 13.000629 32,975 114 426 -128
2019-10-15 15:30:21 GMT 46.879452 12.990488 33,000 114 427 0
2019-10-15 15:30:18 GMT 46.881641 12.983445 33,000 114 426 0
2019-10-15 15:30:15 GMT 46.884476 12.974304 33,000 114 426 0
2019-10-15 15:30:10 GMT 46.889416 12.958304 33,000 114 426 -64
2019-10-15 15:30:04 GMT 46.893372 12.945627 33,000 114 426 0
2019-10-15 15:30:00 GMT 46.896214 12.936472 33,000 114 426 0
2019-10-15 15:29:57 GMT 46.898529 12.928917 33,000 114 426 64
2019-10-15 15:29:54 GMT 46.902077 12.917527 33,000 114 425 0
2019-10-15 15:29:50 GMT 46.904591 12.909358 33,000 114 425 0
2019-10-15 15:29:47 GMT 46.907150 12.900978 33,000 114 425 0
2019-10-15 15:29:44 GMT 46.909561 12.893143 33,000 114 426 -64
2019-10-15 15:29:40 GMT 46.912811 12.882568 33,000 114 425 0
2019-10-15 15:29:36 GMT 46.915855 12.872807 33,000 114 425 64
2019-10-15 15:29:33 GMT 46.918789 12.863230 33,000 114 426 -64
2019-10-15 15:29:30 GMT 46.921051 12.855927 33,000 114 426 -64
2019-10-15 15:29:26 GMT 46.924004 12.846257 33,000 114 426 0
2019-10-15 15:29:21 GMT 46.928658 12.831186 33,000 114 426 0
2019-10-15 15:29:18 GMT 46.930206 12.826126 33,000 114 426 0
2019-10-15 15:29:15 GMT 46.932541 12.818573 33,000 114 426 0
2019-10-15 15:29:09 GMT 46.938015 12.800622 33,000 114 426 0
2019-10-15 15:29:06 GMT 46.940002 12.794197 33,000 114 426 0
2019-10-15 15:29:03 GMT 46.945770 12.775452 33,000 114 426 0
2019-10-15 15:29:00 GMT 46.945770 12.775452 33,000 114 426 0
2019-10-15 15:28:57 GMT 46.947830 12.768860 33,000 114 426 0
2019-10-15 15:28:51 GMT 46.952168 12.754634 33,000 114 426 0
2019-10-15 15:28:48 GMT 46.954636 12.746535 33,000 114 426 0
2019-10-15 15:28:45 GMT 46.958176 12.735146 33,000 113 425 0
2019-10-15 15:28:41 GMT 46.960144 12.728691 33,000 114 426 0
2019-10-15 15:28:36 GMT 46.967251 12.705548 33,000 114 426 0
2019-10-15 15:28:27 GMT 46.971817 12.690582 33,000 114 426 0
2019-10-15 15:28:23 GMT 46.974792 12.680969 33,000 114 426 0
2019-10-15 15:28:20 GMT 46.977306 12.672659 33,000 114 426 -64
2019-10-15 15:28:16 GMT 46.980560 12.662018 33,000 114 426 0
2019-10-15 15:28:12 GMT 46.986107 12.643855 33,000 114 424 0
2019-10-15 15:28:09 GMT 46.989624 12.632423 33,000 114 424 0
2019-10-15 15:28:04 GMT 46.989624 12.632423 33,000 114 424 -64
2019-10-15 15:28:01 GMT 46.992096 12.624321 33,000 114 424 -64
2019-10-15 15:27:58 GMT 46.994717 12.615685 33,000 113 425 0
2019-10-15 15:27:55 GMT 46.998047 12.604820 33,000 113 425 0
2019-10-15 15:27:52 GMT 46.999283 12.600632 33,000 113 425 0
2019-10-15 15:27:48 GMT 47.002537 12.590050 33,000 114 426 0
2019-10-15 15:27:43 GMT 47.007008 12.575331 33,000 114 426 0
2019-10-15 15:27:40 GMT 47.008942 12.569115 33,000 113 425 0
2019-10-15 15:27:37 GMT 47.011322 12.561150 33,000 114 426 0
2019-10-15 15:27:33 GMT 47.015030 12.549065 33,000 114 427 0
2019-10-15 15:27:30 GMT 47.017090 12.542267 33,000 114 427 0
2019-10-15 15:27:27 GMT 47.019669 12.533921 33,000 114 427 0
2019-10-15 15:27:22 GMT 47.023766 12.520470 33,000 114 426 0
2019-10-15 15:27:19 GMT 47.025860 12.513569 33,000 114 427 0
2019-10-15 15:27:16 GMT 47.031353 12.495540 33,000 114 427 0
2019-10-15 15:27:13 GMT 47.031353 12.495540 33,000 114 426 0
2019-10-15 15:27:07 GMT 47.035404 12.482229 33,000 114 426 0
2019-10-15 15:27:02 GMT 47.039921 12.467511 33,000 113 425 0
2019-10-15 15:26:59 GMT 47.041855 12.461174 33,000 113 425 64
2019-10-15 15:26:55 GMT 47.045364 12.449552 33,000 113 425 0
2019-10-15 15:26:51 GMT 47.048576 12.439059 33,000 113 425 0
2019-10-15 15:26:47 GMT 47.053253 12.423615 33,000 113 425 0
2019-10-15 15:26:41 GMT 47.056492 12.413072 33,000 113 425 0
2019-10-15 15:26:38 GMT 47.058884 12.405144 33,000 113 426 0
2019-10-15 15:26:31 GMT 47.064743 12.385780 33,000 113 431 384
2019-10-15 15:26:28 GMT 47.067490 12.376648 33,000 113 429 64
2019-10-15 15:26:19 GMT 47.074173 12.354538 33,000 113 427 0
2019-10-15 15:26:15 GMT 47.077560 12.343414 33,000 113 428 0
2019-10-15 15:26:12 GMT 47.083328 12.324257 33,000 113 428 0
2019-10-15 15:26:08 GMT 47.083328 12.324257 33,000 113 429 64
2019-10-15 15:26:04 GMT 47.091965 12.295532 32,975 113 429 128
2019-10-15 15:25:58 GMT 47.091965 12.295532 32,975 113 430 256
2019-10-15 15:25:55 GMT 47.093269 12.291236 32,950 113 431 320
2019-10-15 15:25:49 GMT 47.098202 12.274827 32,900 113 431 768
2019-10-15 15:25:46 GMT 47.100128 12.268501 32,875 113 427 1408
2019-10-15 15:25:43 GMT 47.108677 12.239967 32,750 113 432 960
2019-10-15 15:25:37 GMT 47.108677 12.239967 32,700 113 432 960
2019-10-15 15:25:34 GMT 47.114731 12.219896 32,225 113 428 1152
2019-10-15 15:25:29 GMT 47.114731 12.219896 32,600 113 431 896
2019-10-15 15:25:26 GMT 47.117615 12.210388 32,525 113 431 896
2019-10-15 15:25:20 GMT 47.121712 12.196655 32,450 113 431 896
2019-10-15 15:25:16 GMT 47.124969 12.185810 32,325 113 429 1024
2019-10-15 15:25:08 GMT 47.131023 12.165668 32,275 113 428 1088
2019-10-15 15:25:05 GMT 47.133682 12.156647 32,150 113 428 1216
2019-10-15 15:24:57 GMT 47.143730 12.122920 32,000 113 427 1408
2019-10-15 15:24:53 GMT 47.149319 12.104257 31,900 113 427 1472
2019-10-15 15:24:46 GMT 47.149319 12.104257 31,000 113 428 0
2019-10-15 15:24:43 GMT 47.151627 12.096565 31,675 113 426 1472
2019-10-15 15:24:37 GMT 47.155602 12.083130 31,500 113 427 1536
2019-10-15 15:24:34 GMT 47.158207 12.074468 31,500 113 427 1536
2019-10-15 15:24:31 GMT 47.160538 12.066650 31,450 113 428 1472
2019-10-15 15:24:27 GMT 47.164124 12.054611 31,300 113 428 1472
2019-10-15 15:24:24 GMT 47.165794 12.049044 31,000 110 428 0
2019-10-15 15:24:20 GMT 47.173279 12.023987 31,150 113 426 1152
2019-10-15 15:24:15 GMT 47.173279 12.023987 31,050 113 428 448
2019-10-15 15:24:12 GMT 47.175201 12.017464 31,025 113 428 448
2019-10-15 15:24:09 GMT 47.181110 11.997775 31,000 111 427 0
2019-10-15 15:24:06 GMT 47.181110 11.997775 31,000 113 428 0
2019-10-15 15:24:03 GMT 47.183578 11.989586 31,000 113 429 0
2019-10-15 15:24:00 GMT 47.184883 11.985309 31,000 113 429 0
2019-10-15 15:23:56 GMT 47.192005 11.961717 31,000 112 427 0
2019-10-15 15:23:53 GMT 47.192005 11.961717 31,000 111 428 0
2019-10-15 15:23:50 GMT 47.193695 11.956009 31,000 113 428 0
2019-10-15 15:23:46 GMT 47.199684 11.936012 31,000 113 427 64
2019-10-15 15:23:42 GMT 47.199684 11.936012 31,000 112 427 0
2019-10-15 15:23:39 GMT 47.201736 11.928758 31,000 105 429 0
2019-10-15 15:23:34 GMT 47.206192 11.912270 31,000 110 428 0
2019-10-15 15:23:31 GMT 47.208252 11.904099 31,000 110 428 0
2019-10-15 15:23:28 GMT 47.209324 11.899884 31,000 109 428 0
2019-10-15 15:23:25 GMT 47.211868 11.889267 31,000 108 430 0
2019-10-15 15:23:21 GMT 47.214256 11.878826 31,000 107 430 0
2019-10-15 15:23:18 GMT 47.215897 11.871208 31,000 105 429 0
2019-10-15 15:23:15 GMT 47.217655 11.862840 31,000 105 433 0
2019-10-15 15:23:12 GMT 47.219379 11.854248 31,000 106 433 0
2019-10-15 15:23:09 GMT 47.221474 11.843543 31,000 105 433 0
2019-10-15 15:23:06 GMT 47.222488 11.838043 31,000 105 433 0
2019-10-15 15:23:03 GMT 47.224079 11.829881 31,000 105 433 0
2019-10-15 15:23:00 GMT 47.225830 11.820740 31,000 105 433 -64
2019-10-15 15:22:57 GMT 47.227432 11.812294 31,000 105 433 -64
2019-10-15 15:22:53 GMT 47.229618 11.800654 31,000 105 432 -64
2019-10-15 15:22:50 GMT 47.231762 11.789527 31,000 105 432 -64
2019-10-15 15:22:46 GMT 47.233391 11.780865 31,000 105 429 64
2019-10-15 15:22:43 GMT 47.236679 11.763680 31,025 105 430 0
2019-10-15 15:22:40 GMT 47.236679 11.763680 31,000 105 431 0
2019-10-15 15:22:34 GMT 47.239441 11.749174 31,000 105 429 0
2019-10-15 15:22:31 GMT 47.241676 11.737272 31,000 105 430 0
2019-10-15 15:22:24 GMT 47.244984 11.719877 31,000 105 430 0
2019-10-15 15:22:21 GMT 47.246983 11.709313 31,000 105 430 64
2019-10-15 15:22:15 GMT 47.250008 11.693256 31,000 105 429 64
2019-10-15 15:22:10 GMT 47.253250 11.676270 36,000 105 429 64
2019-10-15 15:22:07 GMT 47.255219 11.666039 36,000 105 429 64
2019-10-15 15:22:03 GMT 47.256294 11.660156 31,000 105 429 64
2019-10-15 15:22:00 GMT 47.258389 11.649240 31,000 105 428 64
2019-10-15 15:21:57 GMT 47.259384 11.643929 30,975 105 425 0
2019-10-15 15:21:52 GMT 47.262627 11.626845 30,975 105 427 64
2019-10-15 15:21:49 GMT 47.264099 11.618935 30,975 105 427 0
2019-10-15 15:21:46 GMT 47.265186 11.613394 31,000 105 427 0
2019-10-15 15:21:43 GMT 47.267624 11.600327 31,000 105 426 64
2019-10-15 15:21:40 GMT 47.268906 11.593597 31,000 105 426 64
2019-10-15 15:21:37 GMT 47.270279 11.586388 31,000 105 426 0
2019-10-15 15:21:34 GMT 47.273426 11.569519 31,000 105 425 0
2019-10-15 15:21:31 GMT 47.273426 11.569519 31,000 105 425 0
2019-10-15 15:21:28 GMT 47.275497 11.558578 31,000 105 425 64
2019-10-15 15:21:25 GMT 47.276093 11.555351 31,000 105 425 0
2019-10-15 15:21:21 GMT 47.278778 11.541067 31,000 105 425 0
2019-10-15 15:21:18 GMT 47.280315 11.532898 31,000 104 425 0
2019-10-15 15:21:14 GMT 47.281898 11.524447 31,000 105 426 0
2019-10-15 15:21:11 GMT 47.284130 11.512404 31,000 105 426 0
2019-10-15 15:21:08 GMT 47.287125 11.496368 31,025 105 426 0
2019-10-15 15:21:05 GMT 47.287125 11.496368 31,025 105 426 0
2019-10-15 15:21:02 GMT 47.288223 11.490669 31,025 105 427 -64
2019-10-15 15:20:58 GMT 47.293121 11.464371 31,000 105 428 64
2019-10-15 15:20:54 GMT 47.293121 11.464371 31,025 105 428 0
2019-10-15 15:20:50 GMT 47.294724 11.455788 31,000 105 428 0
2019-10-15 15:20:46 GMT 47.297424 11.441437 31,000 105 429 0
2019-10-15 15:20:42 GMT 47.299213 11.431979 31,000 105 430 64
2019-10-15 15:20:38 GMT 47.301270 11.420906 31,000 105 430 64
2019-10-15 15:20:34 GMT 47.302917 11.412117 31,000 105 430 64
2019-10-15 15:20:31 GMT 47.306580 11.392479 31,000 105 425 0
2019-10-15 15:20:28 GMT 47.306580 11.392479 31,000 105 430 64
2019-10-15 15:20:22 GMT 47.309372 11.377510 31,000 105 428 0
2019-10-15 15:20:19 GMT 47.311131 11.368103 31,000 105 428 0
2019-10-15 15:20:16 GMT 47.314819 11.348328 31,000 105 426 0
2019-10-15 15:20:09 GMT 47.316193 11.340843 30,975 105 425 0
2019-10-15 15:20:05 GMT 47.318115 11.330566 31,000 104 423 64
2019-10-15 15:20:02 GMT 47.321228 11.313789 31,000 105 421 64
2019-10-15 15:19:59 GMT 47.322956 11.304580 31,000 105 420 128
2019-10-15 15:19:56 GMT 47.322956 11.304580 31,000 105 419 128
2019-10-15 15:19:50 GMT 47.326080 11.287422 30,975 105 416 448
2019-10-15 15:19:47 GMT 47.327518 11.279649 30,850 105 414 1024
2019-10-15 15:19:44 GMT 47.328869 11.272254 30,950 105 415 640
2019-10-15 15:19:39 GMT 47.331207 11.259613 30,875 105 414 896
2019-10-15 15:19:36 GMT 47.332920 11.250141 30,800 105 414 896
2019-10-15 15:19:33 GMT 47.334454 11.241831 30,325 105 413 960
2019-10-15 15:19:30 GMT 47.336365 11.231267 30,700 105 413 960
2019-10-15 15:19:27 GMT 47.337433 11.225555 30,650 105 412 960
2019-10-15 15:19:24 GMT 47.338879 11.217675 30,600 105 413 960
2019-10-15 15:19:21 GMT 47.340408 11.209351 30,575 105 412 960
2019-10-15 15:19:18 GMT 47.341919 11.201111 30,500 105 412 960
2019-10-15 15:19:15 GMT 47.343796 11.190674 30,450 105 411 1088
2019-10-15 15:19:12 GMT 47.344837 11.184998 30,450 105 411 1088
2019-10-15 15:19:07 GMT 47.347412 11.171036 30,275 105 410 1088
2019-10-15 15:19:04 GMT 47.350330 11.155208 29,825 105 401 1216
2019-10-15 15:19:01 GMT 47.352051 11.145700 29,200 105 401 1024
2019-10-15 15:18:57 GMT 47.352051 11.145700 30,125 105 408 1088
2019-10-15 15:18:53 GMT 47.356522 11.121254 30,000 105 403 1024
2019-10-15 15:18:48 GMT 47.356522 11.121254 30,000 105 407 1088
2019-10-15 15:18:45 GMT 47.360291 11.100769 29,800 105 404 1088
2019-10-15 15:18:41 GMT 47.360291 11.100769 29,825 105 401 1216
2019-10-15 15:18:38 GMT 47.361504 11.094079 29,800 105 404 1024
2019-10-15 15:18:35 GMT 47.362930 11.086304 29,750 105 403 1088
2019-10-15 15:18:31 GMT 47.367554 11.061035 29,675 105 401 1088
2019-10-15 15:18:26 GMT 47.367554 11.061035 29,575 105 402 1152
2019-10-15 15:18:23 GMT 47.369137 11.052387 29,525 105 402 1152
2019-10-15 15:18:20 GMT 47.370117 11.046959 29,350 105 401 1216
2019-10-15 15:18:16 GMT 47.373837 11.026611 29,125 105 401 1088
2019-10-15 15:18:13 GMT 47.373837 11.026611 29,150 105 401 1088
2019-10-15 15:18:10 GMT 47.375061 11.020111 29,275 105 401 1088
2019-10-15 15:18:06 GMT 47.377048 11.009005 29,200 105 401 1088
2019-10-15 15:18:03 GMT 47.378540 11.000885 29,125 105 401 1152
2019-10-15 15:18:00 GMT 47.380310 10.991187 29,100 105 401 1216
2019-10-15 15:17:53 GMT 47.383705 10.972384 28,900 105 400 1472
2019-10-15 15:17:50 GMT 47.384686 10.967102 28,875 105 400 1472
2019-10-15 15:17:47 GMT 47.386551 10.956665 28,775 105 400 1472
2019-10-15 15:17:41 GMT 47.389069 10.942863 28,600 104 399 1536
2019-10-15 15:17:38 GMT 47.392365 10.924636 28,350 104 398 1600
2019-10-15 15:17:35 GMT 47.392365 10.924636 28,425 104 398 1664
2019-10-15 15:17:31 GMT 47.393810 10.916889 28,400 104 398 1728
2019-10-15 15:17:28 GMT 47.395020 10.909973 28,375 104 398 1728
2019-10-15 15:17:25 GMT 47.396622 10.901253 28,175 105 397 1792
2019-10-15 15:17:22 GMT 47.397766 10.894916 28,125 105 397 1856
2019-10-15 15:17:19 GMT 47.399673 10.884423 27,850 104 399 1920
2019-10-15 15:17:15 GMT 47.401428 10.874748 27,900 104 398 1920
2019-10-15 15:17:11 GMT 47.403725 10.861887 27,750 104 398 1920
2019-10-15 15:17:08 GMT 47.404678 10.856552 27,650 104 399 1920
2019-10-15 15:17:05 GMT 47.406380 10.847309 27,575 104 399 1920
2019-10-15 15:17:01 GMT 47.407928 10.838699 27,425 104 400 1984
2019-10-15 15:16:58 GMT 47.409393 10.830322 27,375 104 400 1984
2019-10-15 15:16:55 GMT 47.412277 10.814323 27,125 104 401 1984
2019-10-15 15:16:49 GMT 47.413651 10.806839 26,975 104 401 1984
2019-10-15 15:16:44 GMT 47.416618 10.790405 26,900 104 402 1984
2019-10-15 15:16:40 GMT 47.418064 10.782306 26,550 104 404 1856
2019-10-15 15:16:37 GMT 47.419556 10.774223 26,650 104 403 1920
2019-10-15 15:16:33 GMT 47.421928 10.760968 26,500 104 404 1856
2019-10-15 15:16:30 GMT 47.422905 10.755545 26,400 104 404 1792
2019-10-15 15:16:27 GMT 47.424347 10.747728 26,350 104 404 1792
2019-10-15 15:16:24 GMT 47.426010 10.738449 26,250 104 404 1856
2019-10-15 15:16:20 GMT 47.427654 10.729206 26,125 104 404 1856
2019-10-15 15:16:17 GMT 47.430538 10.713360 25,950 104 404 1920
2019-10-15 15:16:11 GMT 47.432007 10.705215 25,775 104 404 1920
2019-10-15 15:16:08 GMT 47.433472 10.697021 25,725 104 404 2048
2019-10-15 15:16:05 GMT 47.434498 10.691247 25,550 104 404 1984
2019-10-15 15:16:02 GMT 47.436035 10.682693 25,600 104 404 1984
2019-10-15 15:15:59 GMT 47.437988 10.671598 25,425 104 404 2048
2019-10-15 15:15:54 GMT 47.440083 10.659837 25,275 104 404 2048
2019-10-15 15:15:51 GMT 47.441711 10.650823 25,175 104 404 2112
2019-10-15 15:15:47 GMT 47.443062 10.643287 25,000 104 404 2112
2019-10-15 15:15:44 GMT 47.444782 10.633568 24,850 104 404 2112
2019-10-15 15:15:41 GMT 47.445808 10.627723 24,900 104 404 2112
2019-10-15 15:15:38 GMT 47.447571 10.617805 24,750 104 404 2112
2019-10-15 15:15:35 GMT 47.449036 10.609703 24,625 104 404 2112
2019-10-15 15:15:30 GMT 47.451599 10.595284 24,400 104 405 1984
2019-10-15 15:15:27 GMT 47.454300 10.580246 24,300 104 405 1984
2019-10-15 15:15:24 GMT 47.454300 10.580246 24,200 104 405 1984
2019-10-15 15:15:21 GMT 47.455673 10.572418 24,125 104 405 1984
2019-10-15 15:15:18 GMT 47.457550 10.561913 24,025 104 405 1984
2019-10-15 15:15:15 GMT 47.458332 10.557368 23,950 104 405 1984
2019-10-15 15:15:11 GMT 47.460285 10.546241 23,850 104 405 2048
2019-10-15 15:15:08 GMT 47.461777 10.538001 23,575 104 397 1856
2019-10-15 15:15:05 GMT 47.463455 10.528404 23,575 104 405 2048
2019-10-15 15:15:02 GMT 47.464828 10.520576 23,400 104 404 2048
2019-10-15 15:14:56 GMT 47.467548 10.505324 23,250 104 404 1984
2019-10-15 15:14:53 GMT 47.468719 10.498741 23,200 104 404 1984
2019-10-15 15:14:50 GMT 47.470669 10.487577 23,050 104 404 1920
2019-10-15 15:14:44 GMT 47.473366 10.472365 22,800 104 403 1792
2019-10-15 15:14:41 GMT 47.474392 10.466449 22,825 104 403 1792
2019-10-15 15:14:38 GMT 47.475788 10.458491 22,725 104 403 1664
2019-10-15 15:14:35 GMT 47.477417 10.449477 22,650 104 403 1664
2019-10-15 15:14:31 GMT 47.479233 10.439195 22,550 104 402 1536
2019-10-15 15:14:27 GMT 47.480953 10.429335 22,450 104 401 1536
2019-10-15 15:14:24 GMT 47.482544 10.420395 21,875 104 399 1664
2019-10-15 15:14:21 GMT 47.485703 10.402292 21,450 104 396 1600
2019-10-15 15:14:18 GMT 47.485703 10.402292 21,975 104 399 1664
2019-10-15 15:14:14 GMT 47.487194 10.394052 22,075 104 398 1728
2019-10-15 15:14:11 GMT 47.488777 10.385108 21,975 104 397 1792
2019-10-15 15:14:08 GMT 47.490265 10.376446 21,825 104 393 1536
2019-10-15 15:14:04 GMT 47.491661 10.368488 21,475 104 394 1536
2019-10-15 15:14:00 GMT 47.494446 10.352898 21,600 104 396 1600
2019-10-15 15:13:56 GMT 47.495384 10.347360 21,525 104 395 1664
2019-10-15 15:13:53 GMT 47.496735 10.339825 21,475 104 394 1536
2019-10-15 15:13:50 GMT 47.499622 10.323205 21,300 104 393 1472
2019-10-15 15:13:47 GMT 47.499622 10.323205 21,200 104 392 1408
2019-10-15 15:13:44 GMT 47.500946 10.315681 21,175 104 391 1344
2019-10-15 15:13:40 GMT 47.502647 10.305950 21,125 104 391 1344
2019-10-15 15:13:37 GMT 47.504417 10.295950 21,050 104 389 1472
2019-10-15 15:13:33 GMT 47.506073 10.286499 20,950 104 387 1792
2019-10-15 15:13:29 GMT 47.507584 10.277779 20,925 104 388 1728
2019-10-15 15:13:25 GMT 47.509552 10.266586 20,725 104 386 1792
2019-10-15 15:13:22 GMT 47.510468 10.261230 20,675 104 386 1792
2019-10-15 15:13:19 GMT 47.511913 10.253132 20,600 104 385 1920
2019-10-15 15:13:14 GMT 47.514332 10.239258 20,400 104 384 1984
2019-10-15 15:13:11 GMT 47.515778 10.230807 20,250 104 374 960
2019-10-15 15:13:08 GMT 47.517033 10.223764 20,200 104 383 1792
2019-10-15 15:13:03 GMT 47.518890 10.213028 20,075 104 374 896
2019-10-15 15:12:59 GMT 47.522434 10.192707 19,875 104 374 896
2019-10-15 15:12:55 GMT 47.522434 10.192707 19,875 104 374 960
2019-10-15 15:12:52 GMT 47.523968 10.184185 19,850 104 374 960
2019-10-15 15:12:49 GMT 47.525757 10.173752 19,775 104 370 832
2019-10-15 15:12:46 GMT 47.526581 10.169289 19,725 104 366 1088
2019-10-15 15:12:43 GMT 47.527927 10.161368 19,675 104 366 1088
2019-10-15 15:12:40 GMT 47.529415 10.152917 19,525 104 361 2176
2019-10-15 15:12:37 GMT 47.530518 10.146767 19,500 104 362 1664
2019-10-15 15:12:33 GMT 47.532349 10.136367 19,400 104 361 2112
2019-10-15 15:12:29 GMT 47.533859 10.127541 19,275 104 360 2240
2019-10-15 15:12:26 GMT 47.535282 10.119605 19,175 104 358 2368
2019-10-15 15:12:22 GMT 47.536770 10.111014 18,275 104 357 2816
2019-10-15 15:12:19 GMT 47.538300 10.102409 18,800 104 358 2304
2019-10-15 15:12:15 GMT 47.540451 10.089981 18,725 104 358 2368
2019-10-15 15:12:11 GMT 47.541054 10.086506 18,550 104 358 2432
2019-10-15 15:12:08 GMT 47.542648 10.077553 18,325 104 357 2816
2019-10-15 15:12:05 GMT 47.543655 10.071716 18,325 104 357 2816
2019-10-15 15:12:01 GMT 47.547478 10.049955 17,350 103 358 3712
2019-10-15 15:11:56 GMT 47.547478 10.049955 17,900 104 358 2432
2019-10-15 15:11:53 GMT 47.548645 10.043358 17,825 104 357 2304
2019-10-15 15:11:50 GMT 47.550320 10.033757 17,650 104 356 2176
2019-10-15 15:11:47 GMT 47.551296 10.028123 17,550 104 355 2112
2019-10-15 15:11:44 GMT 47.552399 10.021935 16,650 104 355 3392
2019-10-15 15:11:41 GMT 47.553993 10.012770 17,300 104 353 2496
2019-10-15 15:11:36 GMT 47.555511 10.004219 17,075 104 353 2944
2019-10-15 15:11:33 GMT 47.556793 9.996666 16,950 104 353 3008
2019-10-15 15:11:30 GMT 47.558258 9.988495 16,325 104 353 3008
2019-10-15 15:11:27 GMT 47.559723 9.980118 16,625 104 355 3456
2019-10-15 15:11:23 GMT 47.561024 9.972487 16,425 104 355 3712
2019-10-15 15:11:20 GMT 47.562515 9.963638 16,200 102 360 3712
2019-10-15 15:11:15 GMT 47.564117 9.952652 15,900 100 362 3776
2019-10-15 15:11:12 GMT 47.565121 9.943754 15,600 96 371 3392
2019-10-15 15:11:08 GMT 47.565681 9.937838 15,550 95 371 3200
2019-10-15 15:11:05 GMT 47.566284 9.928331 15,350 93 374 2816
2019-10-15 15:11:02 GMT 47.566704 9.915654 15,275 92 375 2432
2019-10-15 15:10:59 GMT 47.566936 9.905795 15,000 91 373 1792
2019-10-15 15:10:53 GMT 47.567123 9.894738 14,925 91 372 1728
2019-10-15 15:10:48 GMT 47.567310 9.884949 14,800 91 368 1472
2019-10-15 15:10:43 GMT 47.567551 9.871765 13,800 91 359 1984
2019-10-15 15:10:40 GMT 47.567688 9.862976 14,575 91 363 1792
2019-10-15 15:10:35 GMT 47.567867 9.853046 14,350 91 354 2176
2019-10-15 15:10:32 GMT 47.568008 9.843887 14,325 91 359 1984
2019-10-15 15:10:29 GMT 47.568287 9.828397 14,200 91 356 1920
2019-10-15 15:10:26 GMT 47.568287 9.828397 14,150 91 357 1920
2019-10-15 15:10:22 GMT 47.568420 9.820473 13,600 91 350 1792
2019-10-15 15:10:19 GMT 47.568558 9.810448 13,875 91 354 2176
2019-10-15 15:10:15 GMT 47.568752 9.801143 13,750 91 352 1984
2019-10-15 15:10:11 GMT 47.568878 9.794037 11,925 91 350 1728
2019-10-15 15:10:07 GMT 47.569061 9.782227 13,575 91 348 1792
2019-10-15 15:10:04 GMT 47.569126 9.777057 13,450 91 346 1664
2019-10-15 15:09:56 GMT 47.569427 9.757370 13,200 91 340 1984
2019-10-15 15:09:50 GMT 47.569637 9.744098 13,025 91 338 2112
2019-10-15 15:09:45 GMT 47.569778 9.733182 12,675 91 335 2176
2019-10-15 15:09:40 GMT 47.569962 9.720788 12,650 91 333 2112
2019-10-15 15:09:37 GMT 47.570068 9.714935 12,500 91 331 1728
2019-10-15 15:09:33 GMT 47.570148 9.706843 12,450 91 331 1472
2019-10-15 15:09:30 GMT 47.570251 9.698593 12,375 91 330 1280
2019-10-15 15:09:26 GMT 47.570435 9.686714 12,300 91 331 896
2019-10-15 15:09:22 GMT 47.570526 9.681015 12,275 91 331 832
2019-10-15 15:09:19 GMT 47.570614 9.672687 12,200 91 331 1152
2019-10-15 15:09:13 GMT 47.570801 9.659660 12,050 91 328 1600
2019-10-15 15:09:09 GMT 47.570892 9.653000 11,925 91 324 1344
2019-10-15 15:09:05 GMT 47.571079 9.640433 11,875 91 320 1152
2019-10-15 15:09:02 GMT 47.571259 9.627663 11,800 91 315 960
2019-10-15 15:08:59 GMT 47.571259 9.627663 11,725 91 308 960
2019-10-15 15:08:52 GMT 47.571453 9.614516 11,675 91 306 1024
2019-10-15 15:08:48 GMT 47.571625 9.604248 11,575 91 298 1088
2019-10-15 15:08:45 GMT 47.571777 9.595994 11,550 91 295 1152
2019-10-15 15:08:42 GMT 47.571823 9.593952 11,500 91 292 1216
2019-10-15 15:08:39 GMT 47.571964 9.587754 11,425 91 288 1216
2019-10-15 15:08:34 GMT 47.572128 9.578430 11,375 91 285 1216
2019-10-15 15:08:31 GMT 47.572266 9.570465 11,225 91 277 1152
2019-10-15 15:08:27 GMT 47.572403 9.563667 11,175 91 275 1152
2019-10-15 15:08:23 GMT 47.572521 9.557824 11,125 91 270 1088
2019-10-15 15:08:20 GMT 47.572617 9.550077 11,050 91 263 1088
2019-10-15 15:08:17 GMT 47.572708 9.546485 11,000 91 260 1088
2019-10-15 15:08:13 GMT 47.572769 9.540802 10,950 91 253 1216
2019-10-15 15:08:10 GMT 47.572861 9.534622 10,875 91 251 1280
2019-10-15 15:08:06 GMT 47.572941 9.527752 10,775 90 246 1600
2019-10-15 15:08:02 GMT 47.573036 9.521203 10,675 90 243 2112
2019-10-15 15:07:59 GMT 47.573128 9.514371 10,500 90 241 2560
2019-10-15 15:07:55 GMT 47.573135 9.509766 10,225 90 240 3072
2019-10-15 15:07:50 GMT 47.573227 9.500290 10,175 90 240 3392
2019-10-15 15:07:45 GMT 47.573273 9.490059 9,675 90 243 3840
2019-10-15 15:07:42 GMT 47.573315 9.482258 9,250 90 249 3328
2019-10-15 15:07:39 GMT 47.573360 9.476412 9,250 90 249 3328
2019-10-15 15:07:35 GMT 47.573360 9.476412 9,050 90 249 3328
2019-10-15 15:07:32 GMT 47.573360 9.470849 9,050 90 249 3328
2019-10-15 15:07:29 GMT 47.573406 9.463665 8,750 90 249 3072
2019-10-15 15:07:26 GMT 47.573406 9.460848 8,650 90 249 2944
2019-10-15 15:07:22 GMT 47.573410 9.454079 8,475 90 247 2880
2019-10-15 15:07:19 GMT 47.573406 9.448453 8,325 90 247 2880
2019-10-15 15:07:14 GMT 47.573456 9.440636 8,075 90 246 3776
2019-10-15 15:07:10 GMT 47.573502 9.434372 7,800 91 248 3968
2019-10-15 15:07:07 GMT 47.573593 9.429359 7,625 95 250 3584
2019-10-15 15:07:04 GMT 47.574188 9.422218 7,400 102 251 3008
2019-10-15 15:06:58 GMT 47.576202 9.412880 7,100 115 250 3072
2019-10-15 15:06:53 GMT 47.578720 9.406288 6,875 127 248 3136
2019-10-15 15:06:50 GMT 47.580856 9.402184 6,725 134 247 3200
2019-10-15 15:06:47 GMT 47.582996 9.398945 6,575 138 247 3328
2019-10-15 15:06:40 GMT 47.590401 9.391479 6,100 155 245 3712
2019-10-15 15:06:36 GMT 47.594650 9.389053 5,850 164 246 3840
2019-10-15 15:06:31 GMT 47.599525 9.387536 5,575 181 247 3776
2019-10-15 15:06:27 GMT 47.605064 9.387254 5,250 185 247 3648
2019-10-15 15:06:21 GMT 47.610535 9.388504 4,975 195 245 3456
2019-10-15 15:06:18 GMT 47.618637 9.393105 4,575 207 243 3008
2019-10-15 15:06:08 GMT 47.624359 9.398735 4,325 221 235 1984
2019-10-15 15:06:03 GMT 47.628387 9.404160 4,175 224 232 1792
2019-10-15 15:05:57 GMT 47.631832 9.410424 3,975 237 223 1664
2019-10-15 15:05:47 GMT 47.637360 9.423935 3,775 240 227 640
2019-10-15 15:05:37 GMT 47.643795 9.440284 3,625 241 205 320
2019-10-15 15:05:24 GMT 47.648449 9.452327 3,475 241 188 1088
2019-10-15 15:05:18 GMT 47.651001 9.459023 3,375 241 178 1216
2019-10-15 15:05:13 GMT 47.652832 9.463829 3,275 241 168 1088
2019-10-15 15:05:06 GMT 47.656906 9.474472 3,075 241 158 1408
We lost coverage of the aircraft here for a total of 59 minutes
2019-10-15 14:05:45 GMT 47.677826 9.528305 1,625 241 142 -832
2019-10-15 14:05:36 GMT 47.680386 9.535006 1,725 241 142 -704
2019-10-15 14:05:25 GMT 47.684017 9.544373 1,850 241 142 -832
2019-10-15 14:05:14 GMT 47.687695 9.553810 2,000 240 142 -640
2019-10-15 14:05:05 GMT 47.690720 9.561556 2,150 241 138 -640
2019-10-15 14:04:53 GMT 47.694351 9.571014 2,250 240 139 -640
2019-10-15 14:04:44 GMT 47.697693 9.579529 2,375 240 137 -704
2019-10-15 14:04:32 GMT 47.701172 9.588524 2,500 241 135 -576
2019-10-15 14:04:22 GMT 47.704193 9.596352 2,600 241 134 -704
2019-10-15 14:04:13 GMT 47.707336 9.604516 2,725 241 135 -576
2019-10-15 14:04:01 GMT 47.710552 9.612896 2,850 241 137 -768
2019-10-15 14:03:51 GMT 47.713715 9.621140 2,975 241 142 -832
2019-10-15 14:03:41 GMT 47.717148 9.629929 3,100 241 152 -768
2019-10-15 14:03:31 GMT 47.720718 9.639130 3,250 241 159 -960
2019-10-15 14:03:20 GMT 47.725121 9.650574 3,450 241 163 -960
2019-10-15 14:03:10 GMT 47.728500 9.659386 3,575 241 166 -768
2019-10-15 14:03:01 GMT 47.732162 9.668655 3,775 241 168 -1024
2019-10-15 14:02:49 GMT 47.737038 9.681420 3,850 241 165 -768
2019-10-15 14:02:40 GMT 47.739807 9.688637 3,950 241 164 -832
2019-10-15 14:02:31 GMT 47.743835 9.698799 4,100 241 167 -960
2019-10-15 14:02:18 GMT 47.748535 9.711139 4,275 241 170 -1088
2019-10-15 14:02:10 GMT 47.751656 9.719450 4,475 241 172 -1152
2019-10-15 14:02:00 GMT 47.756195 9.730728 4,675 238 172 -896
2019-10-15 14:01:54 GMT 47.758163 9.735329 4,725 238 173 -832
2019-10-15 14:01:46 GMT 47.762085 9.744028 4,825 234 179 -704
2019-10-15 14:01:39 GMT 47.765297 9.750437 4,900 223 193 -896
2019-10-15 14:01:35 GMT 47.767822 9.755035 4,950 229 188 -768
2019-10-15 14:01:25 GMT 47.773441 9.763465 5,100 223 193 -832
2019-10-15 14:01:12 GMT 47.781326 9.776184 5,150 234 192 -128
2019-10-15 14:00:51 GMT 47.792343 9.798537 5,150 235 202 -64
2019-10-15 14:00:46 GMT 47.795242 9.804474 5,150 235 201 0
2019-10-15 14:00:42 GMT 47.797138 9.808467 5,150 235 201 0
2019-10-15 14:00:38 GMT 47.800396 9.815017 5,150 234 200 0
2019-10-15 14:00:30 GMT 47.803986 9.822327 5,150 234 199 0
2019-10-15 14:00:23 GMT 47.808334 9.831116 5,150 234 200 0
2019-10-15 14:00:15 GMT 47.812180 9.839081 5,150 235 201 0
2019-10-15 14:00:11 GMT 47.814377 9.843544 5,150 235 201 0
2019-10-15 14:00:07 GMT 47.816757 9.848419 5,150 235 201 0
2019-10-15 13:59:57 GMT 47.822067 9.859337 5,150 235 201 0
2019-10-15 13:59:53 GMT 47.823952 9.863187 5,150 235 201 0
2019-10-15 13:59:50 GMT 47.825859 9.867202 5,150 235 201 0
2019-10-15 13:59:44 GMT 47.828979 9.873681 5,150 235 201 0
2019-10-15 13:59:38 GMT 47.832413 9.880898 5,150 235 200 -64
2019-10-15 13:59:35 GMT 47.833820 9.883822 5,150 235 199 -64
2019-10-15 13:59:29 GMT 47.836853 9.890099 5,150 235 198 -128
2019-10-15 13:59:26 GMT 47.839233 9.895042 5,175 235 198 -256
2019-10-15 13:59:18 GMT 47.842712 9.902390 5,225 235 198 -576
2019-10-15 13:59:09 GMT 47.848114 9.913719 5,325 235 197 -512
2019-10-15 13:58:58 GMT 47.853470 9.924843 5,400 235 195 -512
2019-10-15 13:58:47 GMT 47.859329 9.936996 5,500 235 192 -384
2019-10-15 13:58:36 GMT 47.864918 9.948472 5,825 235 196 -576
2019-10-15 13:58:27 GMT 47.869949 9.958763 5,700 235 199 -896
2019-10-15 13:58:15 GMT 47.876129 9.971397 5,850 234 204 -960
2019-10-15 13:58:03 GMT 47.882889 9.985375 6,050 235 210 -832
2019-10-15 13:57:55 GMT 47.887985 9.996048 6,125 236 216 -384
2019-10-15 13:57:40 GMT 47.896526 10.014320 6,150 235 229 -128
2019-10-15 13:57:32 GMT 47.910324 10.043427 6,350 235 241 -1088
2019-10-15 13:57:19 GMT 47.910324 10.043427 6,300 235 237 -640
2019-10-15 13:57:11 GMT 47.914444 10.052078 6,400 235 242 -1088
2019-10-15 13:57:01 GMT 47.921291 10.066434 6,600 235 246 -1216
2019-10-15 13:56:50 GMT 47.928368 10.081153 6,800 235 248 -1088
2019-10-15 13:56:45 GMT 47.931393 10.087562 6,875 235 249 -1024
2019-10-15 13:56:38 GMT 47.936840 10.098830 7,025 235 248 -896
2019-10-15 13:56:29 GMT 47.942844 10.111366 7,150 235 245 -640
2019-10-15 13:56:25 GMT 47.944839 10.115387 7,175 235 242 -704
2019-10-15 13:56:18 GMT 47.949970 10.126225 7,300 235 243 -1408
2019-10-15 13:56:04 GMT 47.959045 10.145170 7,625 235 248 -2112
2019-10-15 13:55:56 GMT 47.964584 10.156790 8,225 235 249 -2624
2019-10-15 13:55:45 GMT 47.971664 10.171486 8,625 235 246 -1600
2019-10-15 13:55:34 GMT 47.978737 10.186228 9,200 235 246 -1600
2019-10-15 13:55:23 GMT 47.986000 10.201580 9,575 235 246 -1600
2019-10-15 13:55:15 GMT 47.995285 10.221062 9,825 235 262 -832
2019-10-15 13:55:05 GMT 47.998398 10.227585 10,075 235 260 -960
2019-10-15 13:55:02 GMT 48.000366 10.231705 10,075 235 260 -960
2019-10-15 13:54:53 GMT 48.006668 10.244892 10,100 235 262 -832
2019-10-15 13:54:50 GMT 48.008743 10.249214 10,100 235 262 -832
2019-10-15 13:54:46 GMT 48.011398 10.254845 10,225 235 269 -1536
2019-10-15 13:54:43 GMT 48.014397 10.261090 10,225 235 265 -1216
2019-10-15 13:54:37 GMT 48.020508 10.273796 11,575 235 269 -1536
2019-10-15 13:54:34 GMT 48.020508 10.273796 10,425 235 269 -1664
2019-10-15 13:54:30 GMT 48.023254 10.279495 10,800 235 276 -1600
2019-10-15 13:54:24 GMT 48.028381 10.290276 10,700 235 273 -1600
2019-10-15 13:54:20 GMT 48.032551 10.298908 10,850 235 276 -1600
2019-10-15 13:54:17 GMT 48.032551 10.298908 10,850 235 353 -1664
2019-10-15 13:54:12 GMT 48.036118 10.306412 11,025 235 283 -1600
2019-10-15 13:54:07 GMT 48.040466 10.315407 11,150 235 286 -1600
2019-10-15 13:54:01 GMT 48.045120 10.325177 11,300 235 299 -1792
2019-10-15 13:53:58 GMT 48.047882 10.330925 11,375 235 296 -1728
2019-10-15 13:53:55 GMT 48.049713 10.334770 11,475 235 298 -1728
2019-10-15 13:53:51 GMT 48.056580 10.349052 11,625 235 308 -1920
2019-10-15 13:53:47 GMT 48.056580 10.349052 11,700 235 311 -1920
2019-10-15 13:53:44 GMT 48.061478 10.359352 11,850 235 315 -1920
2019-10-15 13:53:41 GMT 48.061478 10.359352 11,975 235 316 -1920
2019-10-15 13:53:38 GMT 48.063931 10.364544 12,225 235 326 -1984
2019-10-15 13:53:33 GMT 48.068306 10.373699 12,425 235 328 -2048
2019-10-15 13:53:27 GMT 48.072819 10.383207 12,325 235 335 -1856
2019-10-15 13:53:23 GMT 48.077454 10.392929 12,500 235 344 -2240
2019-10-15 13:53:20 GMT 48.080658 10.399658 12,650 235 344 -2240
2019-10-15 13:53:17 GMT 48.081944 10.402433 12,700 235 343 -2304
2019-10-15 13:53:13 GMT 48.086040 10.411095 12,925 235 345 -2176
2019-10-15 13:53:10 GMT 48.089718 10.418912 12,975 235 355 -1600
2019-10-15 13:53:06 GMT 48.092468 10.424721 13,075 235 355 -1536
2019-10-15 13:53:03 GMT 48.095074 10.430180 15,450 235 374 -2816
2019-10-15 13:52:59 GMT 48.100159 10.440926 13,250 235 369 -1728
2019-10-15 13:52:56 GMT 48.102081 10.445045 13,325 235 373 -2368
2019-10-15 13:52:53 GMT 48.105515 10.452393 13,475 235 373 -2560
2019-10-15 13:52:50 GMT 48.108479 10.458562 13,675 235 375 -3456
2019-10-15 13:52:47 GMT 48.111511 10.465027 13,775 235 378 -3648
2019-10-15 13:52:43 GMT 48.116673 10.475886 14,100 235 380 -3648
2019-10-15 13:52:38 GMT 48.120071 10.483070 19,775 235 381 -5056
2019-10-15 13:52:35 GMT 48.123367 10.490021 14,500 235 383 -4032
2019-10-15 13:52:30 GMT 48.129227 10.502380 14,925 235 382 -4992
2019-10-15 13:52:26 GMT 48.132980 10.510208 15,450 235 381 -4928
2019-10-15 13:52:21 GMT 48.139156 10.523212 15,750 235 381 -5120
2019-10-15 13:52:17 GMT 48.141670 10.528494 16,125 235 380 -4736
2019-10-15 13:52:14 GMT 48.145302 10.536100 16,250 235 380 -4736
2019-10-15 13:52:09 GMT 48.150421 10.546806 16,625 235 380 -4672
2019-10-15 13:52:06 GMT 48.154083 10.554565 16,800 235 380 -4736
2019-10-15 13:52:03 GMT 48.156475 10.559692 17,025 235 379 -4736
2019-10-15 13:51:59 GMT 48.160526 10.568197 17,550 235 381 -3904
2019-10-15 13:51:55 GMT 48.164436 10.576509 17,600 235 381 -3904
2019-10-15 13:51:51 GMT 48.168549 10.585257 18,025 235 383 -3776
2019-10-15 13:51:48 GMT 48.171753 10.592088 18,400 236 385 -4608
2019-10-15 13:51:45 GMT 48.174442 10.597904 18,325 236 385 -4416
2019-10-15 13:51:41 GMT 48.177937 10.605276 19,325 236 385 -4608
2019-10-15 13:51:38 GMT 48.181705 10.613443 18,950 236 383 -4992
2019-10-15 13:51:35 GMT 48.185802 10.622261 19,175 236 380 -5632
2019-10-15 13:51:31 GMT 48.189514 10.630258 19,425 236 380 -5632
2019-10-15 13:51:26 GMT 48.193764 10.639464 19,900 236 381 -3776
2019-10-15 13:51:23 GMT 48.196472 10.645259 20,100 236 380 -3392
2019-10-15 13:51:20 GMT 48.199585 10.651949 23,275 207 388 -3392
2019-10-15 13:51:16 GMT 48.204666 10.662724 20,575 233 382 -3328
2019-10-15 13:51:13 GMT 48.206985 10.667291 20,625 232 382 -3328
2019-10-15 13:51:10 GMT 48.211174 10.674880 22,950 207 390 -3136
2019-10-15 13:51:06 GMT 48.214619 10.680518 24,950 224 382 -3392
2019-10-15 13:51:03 GMT 48.219360 10.687373 21,475 207 387 -3520
2019-10-15 13:51:00 GMT 48.224396 10.693923 21,525 208 396 -3264
2019-10-15 13:50:57 GMT 48.227051 10.697092 21,525 207 385 -3968
2019-10-15 13:50:54 GMT 48.232166 10.702491 21,875 212 385 -3136
2019-10-15 13:50:51 GMT 48.239594 10.709416 22,950 207 390 -3136
2019-10-15 13:50:48 GMT 48.239594 10.709416 22,950 207 390 -3136
2019-10-15 13:50:45 GMT 48.246086 10.714561 22,250 207 385 -3968
2019-10-15 13:50:42 GMT 48.250031 10.717445 22,425 206 385 -3968
2019-10-15 13:50:38 GMT 48.261337 10.725685 22,775 206 385 -3776
2019-10-15 13:50:35 GMT 48.267361 10.730029 22,975 206 385 -3584
2019-10-15 13:50:32 GMT 48.267361 10.730029 23,100 207 387 -3520
2019-10-15 13:50:27 GMT 48.278046 10.737939 23,525 207 389 -3328
2019-10-15 13:50:23 GMT 48.280441 10.739642 25,175 207 390 -3200
2019-10-15 13:50:20 GMT 48.289940 10.746725 25,725 208 397 -3200
2019-10-15 13:50:17 GMT 48.295757 10.751062 24,025 207 392 -3136
2019-10-15 13:50:14 GMT 48.295757 10.751062 24,250 207 394 -3264
2019-10-15 13:50:11 GMT 48.301117 10.755122 24,250 207 395 -3328
2019-10-15 13:50:07 GMT 48.306000 10.758795 24,525 207 395 -3328
2019-10-15 13:50:04 GMT 48.313065 10.764137 24,725 208 399 -2944
2019-10-15 13:50:01 GMT 48.322155 10.771155 24,900 208 399 -2944
2019-10-15 13:49:58 GMT 48.325974 10.774137 24,950 208 400 -2688
2019-10-15 13:49:55 GMT 48.325974 10.774137 25,025 208 402 -2624
2019-10-15 13:49:52 GMT 48.330441 10.777732 25,150 209 404 -2752
2019-10-15 13:49:49 GMT 48.335587 10.781813 29,725 132 408 -5056
2019-10-15 13:49:45 GMT 48.342545 10.787377 25,500 209 405 -2944
2019-10-15 13:49:41 GMT 48.349091 10.792870 25,800 210 406 -2944
2019-10-15 13:49:38 GMT 48.355270 10.798011 25,850 210 407 -2880
2019-10-15 13:49:35 GMT 48.363865 10.805343 26,025 210 408 -2688
2019-10-15 13:49:32 GMT 48.368614 10.809463 26,275 211 410 -2624
2019-10-15 13:49:25 GMT 48.376713 10.816618 26,625 211 411 -2624
2019-10-15 13:49:21 GMT 48.381741 10.821100 26,525 211 410 -2560
2019-10-15 13:49:18 GMT 48.388138 10.826886 26,775 170 418 0
2019-10-15 13:49:15 GMT 48.391518 10.829845 26,875 211 412 -2560
2019-10-15 13:49:12 GMT 48.395660 10.833676 27,000 212 413 -2688
2019-10-15 13:49:09 GMT 48.402828 10.840036 27,150 211 412 -2752
2019-10-15 13:49:06 GMT 48.405396 10.842309 27,225 210 413 -2944
2019-10-15 13:49:03 GMT 48.411209 10.847337 27,400 210 413 -3008
2019-10-15 13:48:59 GMT 48.417526 10.852732 27,600 191 410 -3456
2019-10-15 13:48:56 GMT 48.424381 10.858323 28,325 206 413 -2560
2019-10-15 13:48:53 GMT 48.428329 10.861394 28,325 206 413 -2560
2019-10-15 13:48:49 GMT 48.434738 10.866042 27,975 206 413 -2560
2019-10-15 13:48:46 GMT 48.440071 10.869671 28,150 202 412 -2880
2019-10-15 13:48:43 GMT 48.447098 10.873718 28,375 197 412 -3264
2019-10-15 13:48:38 GMT 48.456783 10.878127 28,650 195 411 -3392
2019-10-15 13:48:35 GMT 48.459412 10.879071 33,625 191 410 -3456
2019-10-15 13:48:32 GMT 48.467148 10.881395 33,625 135 388 -640
2019-10-15 13:48:29 GMT 48.471169 10.882247 29,125 185 411 -2944
2019-10-15 13:48:26 GMT 48.476212 10.883085 29,250 185 411 -3008
2019-10-15 13:48:22 GMT 48.486237 10.883789 29,500 174 415 -2048
2019-10-15 13:48:19 GMT 48.488953 10.883765 29,675 177 414 -2048
2019-10-15 13:48:15 GMT 48.496677 10.883331 29,875 155 419 -4224
2019-10-15 13:48:12 GMT 48.502670 10.882381 29,675 173 416 -2112
2019-10-15 13:48:09 GMT 48.509060 10.880874 29,875 169 419 -2432
2019-10-15 13:48:05 GMT 48.522610 10.875887 30,775 163 421 -3264
2019-10-15 13:47:58 GMT 48.530182 10.871958 30,575 154 419 -4224
2019-10-15 13:47:55 GMT 48.536270 10.868084 30,650 153 419 -4224
2019-10-15 13:47:51 GMT 48.542267 10.863718 30,875 152 419 -4224
2019-10-15 13:47:48 GMT 48.548725 10.858323 31,200 148 418 -4288
2019-10-15 13:47:45 GMT 48.553005 10.854275 31,475 143 416 -4608
2019-10-15 13:47:41 GMT 48.557785 10.849281 31,600 142 416 -4736
2019-10-15 13:47:38 GMT 48.563759 10.842133 31,775 140 414 -4928
2019-10-15 13:47:35 GMT 48.567436 10.837290 32,125 136 411 -5184
2019-10-15 13:47:32 GMT 48.572281 10.830062 32,475 133 408 -5120
2019-10-15 13:47:29 GMT 48.574978 10.825798 32,775 131 404 -4544
2019-10-15 13:47:25 GMT 48.581268 10.815195 32,925 131 403 -4480
2019-10-15 13:47:21 GMT 48.586662 10.806066 33,225 132 399 -3840
2019-10-15 13:47:17 GMT 48.589642 10.801223 33,450 133 397 -3136
2019-10-15 13:47:13 GMT 48.595367 10.792116 33,650 134 394 -2176
2019-10-15 13:47:08 GMT 48.601421 10.782864 33,750 134 393 -1984
2019-10-15 13:47:05 GMT 48.605331 10.777010 34,025 135 391 -1856
2019-10-15 13:47:02 GMT 48.609283 10.771109 34,125 135 390 -1792
2019-10-15 13:46:58 GMT 48.614548 10.763362 34,400 135 387 -1600
2019-10-15 13:46:55 GMT 48.622375 10.751742 34,325 135 387 -1600
2019-10-15 13:46:52 GMT 48.626266 10.746037 34,375 135 387 -1472
2019-10-15 13:46:49 GMT 48.626266 10.746037 34,425 135 386 -1344
2019-10-15 13:46:46 GMT 48.629772 10.740870 34,600 135 386 -1344
2019-10-15 13:46:43 GMT 48.634003 10.734629 34,600 135 386 -1344
2019-10-15 13:46:40 GMT 48.637756 10.729065 34,600 135 386 -1344
2019-10-15 13:46:37 GMT 48.641373 10.723713 34,650 135 389 -448
2019-10-15 13:46:34 GMT 48.644947 10.718392 34,725 135 386 -1280
2019-10-15 13:46:31 GMT 48.648903 10.712537 34,800 135 386 -1216
2019-10-15 13:46:28 GMT 48.652679 10.706951 34,925 135 409 0
2019-10-15 13:46:25 GMT 48.656120 10.701912 34,925 135 386 -960
2019-10-15 13:46:22 GMT 48.661194 10.694251 35,025 135 386 -832
2019-10-15 13:46:18 GMT 48.665634 10.687585 35,025 135 413 0
2019-10-15 13:46:15 GMT 48.669060 10.682542 35,025 135 391 -192
2019-10-15 13:46:12 GMT 48.674133 10.674880 35,025 135 413 -64
2019-10-15 13:46:09 GMT 48.677856 10.669344 35,025 135 394 0
2019-10-15 13:46:05 GMT 48.682655 10.662087 35,025 135 400 64
2019-10-15 13:46:02 GMT 48.685547 10.657795 35,000 135 398 64
2019-10-15 13:45:59 GMT 48.690056 10.650956 34,975 135 403 64
2019-10-15 13:45:56 GMT 48.693874 10.645318 34,975 135 405 64
2019-10-15 13:45:53 GMT 48.698574 10.638163 34,975 135 407 0
2019-10-15 13:45:47 GMT 48.706787 10.625892 35,025 135 413 0
2019-10-15 13:45:43 GMT 48.710819 10.619876 35,025 135 413 -64
2019-10-15 13:45:40 GMT 48.715805 10.612441 35,025 135 413 -64
2019-10-15 13:45:37 GMT 48.719383 10.607083 35,025 135 413 0
2019-10-15 13:45:34 GMT 48.724831 10.598988 35,025 135 413 -64
2019-10-15 13:45:27 GMT 48.732513 10.587440 35,025 135 413 64
2019-10-15 13:45:24 GMT 48.739014 10.577721 35,025 135 413 64
2019-10-15 13:45:21 GMT 48.741684 10.573763 35,025 135 413 64
2019-10-15 13:45:17 GMT 48.746479 10.566535 35,025 135 413 64
2019-10-15 13:45:14 GMT 48.751179 10.559596 35,000 135 414 64
2019-10-15 13:45:11 GMT 48.760529 10.545537 35,000 135 414 64
2019-10-15 13:45:08 GMT 48.760529 10.545537 35,000 134 409 -64
2019-10-15 13:45:02 GMT 48.771469 10.529198 35,000 135 414 0
2019-10-15 13:44:56 GMT 48.775620 10.522951 35,000 134 409 -64
2019-10-15 13:44:53 GMT 48.783485 10.511097 35,000 135 414 0
2019-10-15 13:44:50 GMT 48.788956 10.502859 35,000 135 414 0
2019-10-15 13:44:46 GMT 48.788956 10.502859 35,000 135 412 0
2019-10-15 13:44:43 GMT 48.793945 10.495394 35,000 135 414 0
2019-10-15 13:44:40 GMT 48.797359 10.490281 35,000 135 414 0
2019-10-15 13:44:36 GMT 48.802826 10.482013 35,000 135 412 0
2019-10-15 13:44:32 GMT 48.809418 10.472154 35,025 135 412 0
2019-10-15 13:44:29 GMT 48.812721 10.467224 35,000 135 413 -64
2019-10-15 13:44:26 GMT 48.817383 10.460182 35,025 135 412 -64
2019-10-15 13:44:21 GMT 48.822868 10.451973 35,025 135 413 0
2019-10-15 13:44:18 GMT 48.826546 10.446408 35,025 135 412 0
2019-10-15 13:44:15 GMT 48.830971 10.439758 35,000 135 412 0
2019-10-15 13:44:11 GMT 48.836746 10.431096 35,025 135 412 0
2019-10-15 13:44:08 GMT 48.839722 10.426604 35,000 135 412 0
2019-10-15 13:44:05 GMT 48.845352 10.418138 35,000 135 412 0
2019-10-15 13:44:01 GMT 48.850204 10.410884 35,000 135 412 0
2019-10-15 13:43:58 GMT 48.855652 10.402715 35,000 135 412 0
2019-10-15 13:43:54 GMT 48.861416 10.394078 35,000 135 412 64
2019-10-15 13:43:49 GMT 48.866398 10.386561 35,000 135 412 64
2019-10-15 13:43:46 GMT 48.871078 10.379545 35,000 135 412 64
2019-10-15 13:43:43 GMT 48.874638 10.374202 35,000 134 409 0
2019-10-15 13:43:40 GMT 48.878780 10.367986 34,975 135 411 0
2019-10-15 13:43:37 GMT 48.881618 10.363649 34,975 135 411 0
2019-10-15 13:43:34 GMT 48.886505 10.356375 34,975 135 411 0
2019-10-15 13:43:29 GMT 48.893955 10.345073 35,000 135 410 0
2019-10-15 13:43:23 GMT 48.900612 10.335027 35,000 134 409 0
2019-10-15 13:43:19 GMT 48.907059 10.325177 35,000 134 409 -64
2019-10-15 13:43:16 GMT 48.910583 10.319824 35,000 134 409 0
2019-10-15 13:43:13 GMT 48.914520 10.313909 35,000 134 409 64
2019-10-15 13:43:07 GMT 48.923996 10.299471 35,000 134 409 0
2019-10-15 13:43:03 GMT 48.933105 10.285588 35,025 134 409 0
2019-10-15 13:42:59 GMT 48.933105 10.285588 35,000 134 409 0
2019-10-15 13:42:56 GMT 48.937088 10.279471 35,000 135 410 -64
2019-10-15 13:42:53 GMT 48.942043 10.272000 35,000 135 423 -128
2019-10-15 13:42:50 GMT 48.946335 10.265456 35,000 134 410 -64
2019-10-15 13:42:47 GMT 48.950226 10.259540 35,025 134 412 -64
2019-10-15 13:42:44 GMT 48.953796 10.254118 35,025 130 424 -64
2019-10-15 13:42:41 GMT 48.957081 10.249088 35,025 135 415 0
2019-10-15 13:42:38 GMT 48.965240 10.236652 35,025 134 413 0
2019-10-15 13:42:35 GMT 48.965240 10.236652 35,025 135 414 0
2019-10-15 13:42:32 GMT 48.970367 10.228835 35,025 135 416 64
2019-10-15 13:42:28 GMT 48.975769 10.220595 35,000 134 422 -128
2019-10-15 13:42:25 GMT 48.978973 10.215806 35,000 134 422 -192
2019-10-15 13:42:22 GMT 48.983105 10.209551 34,975 134 422 -192
2019-10-15 13:42:16 GMT 48.990829 10.197707 35,000 135 423 64
2019-10-15 13:42:12 GMT 48.997253 10.187940 35,025 135 423 -128
2019-10-15 13:42:09 GMT 49.002747 10.179700 35,025 135 423 64
2019-10-15 13:42:06 GMT 49.005543 10.175436 35,025 135 423 0
2019-10-15 13:42:03 GMT 49.009823 10.168931 35,025 135 422 64
2019-10-15 13:42:00 GMT 49.017693 10.157149 35,025 135 422 64
2019-10-15 13:41:57 GMT 49.017693 10.157149 35,025 135 422 64
2019-10-15 13:41:54 GMT 49.022278 10.150311 35,000 135 422 64
2019-10-15 13:41:51 GMT 49.026535 10.143902 35,000 131 424 -64
2019-10-15 13:41:48 GMT 49.035187 10.130592 35,000 133 422 64
2019-10-15 13:41:45 GMT 49.035187 10.130592 35,000 133 422 64
2019-10-15 13:41:39 GMT 49.043110 10.117830 35,000 126 425 0
2019-10-15 13:41:33 GMT 49.050091 10.106049 35,000 128 424 0
2019-10-15 13:41:30 GMT 49.059540 10.089393 35,000 123 426 0
2019-10-15 13:41:26 GMT 49.059540 10.089393 35,000 129 424 0
2019-10-15 13:41:23 GMT 49.063385 10.082210 35,000 128 424 0
2019-10-15 13:41:19 GMT 49.069061 10.071294 35,000 124 426 0
2019-10-15 13:41:15 GMT 49.073547 10.062279 35,000 126 425 0
2019-10-15 13:41:11 GMT 49.076706 10.055871 35,000 125 425 0
2019-10-15 13:41:08 GMT 49.081001 10.046708 35,000 125 426 0
2019-10-15 13:41:04 GMT 49.085007 10.037962 35,000 124 426 64
2019-10-15 13:41:01 GMT 49.088776 10.029506 35,000 123 426 0
2019-10-15 13:40:56 GMT 49.097031 10.010587 35,000 123 426 0
2019-10-15 13:40:53 GMT 49.103020 9.996908 35,000 123 425 0
2019-10-15 13:40:49 GMT 49.103020 9.996908 35,000 123 426 0
2019-10-15 13:40:46 GMT 49.108292 9.984952 35,000 123 426 0
2019-10-15 13:40:43 GMT 49.112656 9.974863 35,000 123 426 0
2019-10-15 13:40:40 GMT 49.112656 9.974863 35,000 123 426 0
2019-10-15 13:40:37 GMT 49.115845 9.967487 35,000 123 426 0
2019-10-15 13:40:34 GMT 49.121593 9.954408 35,000 123 426 0
2019-10-15 13:40:28 GMT 49.125412 9.945663 35,000 123 426 0
2019-10-15 13:40:25 GMT 49.128296 9.939035 35,000 123 425 0
2019-10-15 13:40:22 GMT 49.131729 9.931148 35,000 123 424 0
2019-10-15 13:40:19 GMT 49.134064 9.925795 35,000 123 424 0
2019-10-15 13:40:16 GMT 49.138229 9.916218 35,000 123 424 0
2019-10-15 13:40:13 GMT 49.141754 9.908119 35,000 123 424 0
2019-10-15 13:40:10 GMT 49.144180 9.902625 35,000 123 424 0
2019-10-15 13:40:07 GMT 49.148300 9.893118 35,000 123 424 0
2019-10-15 13:40:04 GMT 49.151733 9.885230 35,000 123 424 64
2019-10-15 13:40:01 GMT 49.153297 9.881696 35,000 123 424 64
2019-10-15 13:39:58 GMT 49.156998 9.873188 35,000 123 424 0
2019-10-15 13:39:54 GMT 49.161350 9.863121 35,000 123 424 64
2019-10-15 13:39:51 GMT 49.165512 9.853610 35,000 123 422 0
2019-10-15 13:39:48 GMT 49.167542 9.848954 34,975 123 422 0
2019-10-15 13:39:45 GMT 49.171127 9.840787 35,025 123 421 -64
2019-10-15 13:39:42 GMT 49.177689 9.825651 35,000 123 421 -64
2019-10-15 13:39:39 GMT 49.177689 9.825651 35,000 123 421 -64
2019-10-15 13:39:36 GMT 49.181694 9.816501 35,000 123 420 -64
2019-10-15 13:39:32 GMT 49.185516 9.807692 35,000 123 419 0
2019-10-15 13:39:29 GMT 49.189133 9.799382 35,025 123 419 0
2019-10-15 13:39:25 GMT 49.193756 9.788818 35,000 123 416 0
2019-10-15 13:39:21 GMT 49.198032 9.778916 35,000 123 416 0
2019-10-15 13:39:18 GMT 49.200256 9.773888 35,000 123 416 0
2019-10-15 13:39:15 GMT 49.203621 9.766123 35,000 123 416 0
2019-10-15 13:39:11 GMT 49.208370 9.755281 35,000 123 416 0
2019-10-15 13:39:07 GMT 49.216282 9.737067 35,000 123 416 0
2019-10-15 13:39:00 GMT 49.219070 9.730647 35,000 123 416 0
2019-10-15 13:38:56 GMT 49.223694 9.720013 35,000 123 416 0
2019-10-15 13:38:53 GMT 49.226803 9.712854 35,000 123 416 0
2019-10-15 13:38:50 GMT 49.230194 9.704942 35,000 123 416 0
2019-10-15 13:38:47 GMT 49.232948 9.698615 35,000 123 417 0
2019-10-15 13:38:44 GMT 49.240448 9.681279 35,000 123 415 0
2019-10-15 13:38:41 GMT 49.240448 9.681279 35,000 123 412 -64
2019-10-15 13:38:37 GMT 49.244339 9.672406 35,000 123 416 0
2019-10-15 13:38:33 GMT 49.251850 9.655031 35,000 123 416 0
2019-10-15 13:38:30 GMT 49.254410 9.649104 35,000 123 414 -64
2019-10-15 13:38:27 GMT 49.254410 9.649104 35,000 123 415 0
2019-10-15 13:38:21 GMT 49.260647 9.634576 35,000 123 415 0
2019-10-15 13:38:18 GMT 49.263702 9.627474 35,000 123 415 -64
2019-10-15 13:38:15 GMT 49.266403 9.621206 35,000 123 414 -64
2019-10-15 13:38:11 GMT 49.271988 9.608248 35,000 123 414 -64
2019-10-15 13:38:08 GMT 49.274551 9.602403 35,000 123 413 -64
2019-10-15 13:38:05 GMT 49.282013 9.585008 35,000 123 412 0
2019-10-15 13:38:02 GMT 49.282013 9.585008 35,025 123 412 0
2019-10-15 13:37:59 GMT 49.287140 9.573036 35,025 123 411 0
2019-10-15 13:37:56 GMT 49.287140 9.573036 35,000 123 411 0
2019-10-15 13:37:53 GMT 49.289429 9.567754 35,000 123 411 64
2019-10-15 13:37:50 GMT 49.293419 9.558322 35,000 123 411 64
2019-10-15 13:37:47 GMT 49.299706 9.543650 34,975 123 412 0
2019-10-15 13:37:44 GMT 49.304405 9.532663 34,975 123 412 0
2019-10-15 13:37:40 GMT 49.304405 9.532663 34,975 123 413 64
2019-10-15 13:37:37 GMT 49.306824 9.526978 34,975 123 413 -192
2019-10-15 13:37:34 GMT 49.310318 9.518931 35,000 123 407 0
2019-10-15 13:37:31 GMT 49.313206 9.512209 35,000 123 410 0
2019-10-15 13:37:28 GMT 49.316895 9.503667 35,025 123 413 -64
2019-10-15 13:37:25 GMT 49.324844 9.485249 35,025 123 411 0
2019-10-15 13:37:21 GMT 49.324844 9.485249 35,000 123 409 0
2019-10-15 13:37:18 GMT 49.327076 9.479972 35,000 123 410 0
2019-10-15 13:37:15 GMT 49.329208 9.475074 35,000 123 409 0
2019-10-15 13:37:12 GMT 49.336670 9.457750 35,000 123 409 0
2019-10-15 13:37:08 GMT 49.336670 9.457750 35,000 123 407 0
2019-10-15 13:37:05 GMT 49.341248 9.447115 35,000 123 409 0
2019-10-15 13:37:02 GMT 49.343651 9.441593 35,000 123 409 0
2019-10-15 13:36:59 GMT 49.347374 9.432919 35,000 123 407 64
2019-10-15 13:36:56 GMT 49.350540 9.425565 35,000 123 409 0
2019-10-15 13:36:52 GMT 49.353844 9.417885 35,000 123 409 -64
2019-10-15 13:36:49 GMT 49.362122 9.398592 35,000 123 407 0
2019-10-15 13:36:44 GMT 49.362122 9.398592 35,000 123 408 0
2019-10-15 13:36:41 GMT 49.365372 9.391057 35,000 123 408 0
2019-10-15 13:36:38 GMT 49.368301 9.384296 35,000 123 408 0
2019-10-15 13:36:35 GMT 49.371552 9.376690 35,000 123 407 64
2019-10-15 13:36:32 GMT 49.375816 9.366857 35,000 123 407 64
2019-10-15 13:36:29 GMT 49.378796 9.359990 35,000 123 408 128
2019-10-15 13:36:26 GMT 49.381123 9.354497 35,000 123 408 128
2019-10-15 13:36:23 GMT 49.384010 9.347920 35,000 123 408 128
2019-10-15 13:36:20 GMT 49.388016 9.338740 34,975 123 407 -64
2019-10-15 13:36:17 GMT 49.391132 9.331585 34,975 123 407 -64
2019-10-15 13:36:14 GMT 49.393272 9.326598 35,000 123 408 -64
2019-10-15 13:36:11 GMT 49.396637 9.318942 35,000 123 407 0
2019-10-15 13:36:08 GMT 49.400848 9.309364 35,000 123 408 0
2019-10-15 13:36:05 GMT 49.403004 9.304408 35,000 124 405 128
2019-10-15 13:36:02 GMT 49.406708 9.296053 35,000 124 405 128
2019-10-15 13:35:59 GMT 49.412567 9.282743 35,000 124 405 0
2019-10-15 13:35:56 GMT 49.416317 9.274196 35,000 124 405 64
2019-10-15 13:35:53 GMT 49.416317 9.274196 35,000 123 406 -64
2019-10-15 13:35:50 GMT 49.417923 9.270489 35,000 123 406 0
2019-10-15 13:35:47 GMT 49.424232 9.256126 35,000 123 406 -64
2019-10-15 13:35:41 GMT 49.429047 9.245212 35,000 123 406 -64
2019-10-15 13:35:38 GMT 49.431725 9.239057 35,000 123 406 -64
2019-10-15 13:35:34 GMT 49.435265 9.230817 35,000 123 405 64
2019-10-15 13:35:30 GMT 49.439175 9.221835 35,000 123 406 0
2019-10-15 13:35:27 GMT 49.443008 9.212759 35,000 121 408 -64
2019-10-15 13:35:24 GMT 49.445618 9.206615 35,000 122 406 -64
2019-10-15 13:35:21 GMT 49.451279 9.192884 35,000 121 407 0
2019-10-15 13:35:15 GMT 49.454395 9.185164 35,025 121 408 0
2019-10-15 13:35:12 GMT 49.457561 9.177221 35,025 120 408 -64
2019-10-15 13:35:07 GMT 49.461685 9.166573 35,000 120 417 64
2019-10-15 13:35:04 GMT 49.465759 9.155948 35,000 120 410 0
2019-10-15 13:35:01 GMT 49.468506 9.148720 34,975 120 411 0
2019-10-15 13:34:57 GMT 49.472599 9.138027 35,000 120 411 -64
2019-10-15 13:34:53 GMT 49.475647 9.130072 34,975 120 416 192
2019-10-15 13:34:49 GMT 49.479584 9.119737 34,975 120 418 -64
2019-10-15 13:34:46 GMT 49.482746 9.111526 35,000 120 415 128
2019-10-15 13:34:43 GMT 49.485634 9.103954 35,000 120 418 -64
2019-10-15 13:34:40 GMT 49.492290 9.086436 34,950 120 417 128
2019-10-15 13:34:37 GMT 49.492290 9.086436 34,975 120 417 192
2019-10-15 13:34:34 GMT 49.494339 9.081091 34,975 120 417 192
2019-10-15 13:34:31 GMT 49.501144 9.063287 34,975 120 418 0
2019-10-15 13:34:27 GMT 49.501144 9.063287 34,975 120 418 -64
2019-10-15 13:34:24 GMT 49.505047 9.053180 34,975 120 418 -64
2019-10-15 13:34:21 GMT 49.511982 9.035141 34,975 120 417 64
2019-10-15 13:34:17 GMT 49.511982 9.035141 34,975 120 417 0
2019-10-15 13:34:14 GMT 49.514870 9.027644 34,975 120 417 -64
2019-10-15 13:34:11 GMT 49.517899 9.019703 34,975 120 417 -64
2019-10-15 13:34:08 GMT 49.519665 9.015173 34,975 120 417 0
2019-10-15 13:34:05 GMT 49.525391 9.000178 34,975 120 417 0
2019-10-15 13:33:59 GMT 49.532513 8.981546 34,975 120 417 -64
2019-10-15 13:33:55 GMT 49.532513 8.981546 35,000 120 417 64
2019-10-15 13:33:52 GMT 49.538544 8.965783 34,975 120 417 0
2019-10-15 13:33:49 GMT 49.538544 8.965783 34,975 120 417 0
2019-10-15 13:33:46 GMT 49.545227 8.948220 34,975 120 417 -64
2019-10-15 13:33:42 GMT 49.545227 8.948220 34,975 120 417 -64
2019-10-15 13:33:39 GMT 49.548107 8.940644 35,000 120 417 -64
2019-10-15 13:33:36 GMT 49.550949 8.933186 34,975 120 417 0
2019-10-15 13:33:32 GMT 49.554764 8.923200 35,000 120 417 -64
2019-10-15 13:33:29 GMT 49.558117 8.914292 35,000 120 417 -64
2019-10-15 13:33:26 GMT 49.561066 8.906660 35,000 120 415 0
2019-10-15 13:33:23 GMT 49.565006 8.896328 35,050 120 417 -64
2019-10-15 13:33:20 GMT 49.566559 8.892204 35,000 120 417 -64
2019-10-15 13:33:17 GMT 49.571987 8.877992 35,000 120 417 -64
2019-10-15 13:33:14 GMT 49.575119 8.869725 35,000 120 416 -64
2019-10-15 13:33:11 GMT 49.577763 8.862775 35,025 120 415 -64
2019-10-15 13:33:08 GMT 49.577763 8.862775 35,025 120 416 -64
2019-10-15 13:33:05 GMT 49.580475 8.855703 35,025 120 415 -64
2019-10-15 13:33:02 GMT 49.584778 8.844356 35,025 120 415 0
2019-10-15 13:32:59 GMT 49.589027 8.833156 35,025 120 416 0
2019-10-15 13:32:53 GMT 49.592609 8.823655 35,025 120 416 -64
2019-10-15 13:32:49 GMT 49.596542 8.813348 35,025 120 416 -64
2019-10-15 13:32:46 GMT 49.600021 8.804096 35,025 120 416 -64
2019-10-15 13:32:42 GMT 49.603683 8.794483 35,025 120 416 -64
2019-10-15 13:32:39 GMT 49.606995 8.785648 35,025 120 416 -64
2019-10-15 13:32:36 GMT 49.608810 8.780895 35,025 120 416 -64
2019-10-15 13:32:33 GMT 49.613186 8.769317 35,025 120 416 0
2019-10-15 13:32:30 GMT 49.615265 8.763765 35,025 120 416 0
2019-10-15 13:32:27 GMT 49.617561 8.757737 35,025 120 416 64
2019-10-15 13:32:24 GMT 49.620075 8.751056 35,025 120 416 64
2019-10-15 13:32:21 GMT 49.624741 8.738757 35,025 120 416 64
2019-10-15 13:32:18 GMT 49.627670 8.731023 35,025 120 416 64
2019-10-15 13:32:15 GMT 49.629684 8.725602 35,025 120 416 64
2019-10-15 13:32:12 GMT 49.632614 8.717940 35,025 120 416 64
2019-10-15 13:32:09 GMT 49.635544 8.710134 35,025 120 416 64
2019-10-15 13:32:06 GMT 49.638565 8.702184 35,000 120 417 64
2019-10-15 13:32:02 GMT 49.641907 8.693366 35,000 120 418 64
2019-10-15 13:31:58 GMT 49.645660 8.683464 35,000 120 419 0
2019-10-15 13:31:55 GMT 49.648773 8.675224 35,000 120 418 0
2019-10-15 13:31:52 GMT 49.652527 8.665249 35,000 120 419 0
2019-10-15 13:31:49 GMT 49.655083 8.658637 35,000 120 418 -64
2019-10-15 13:31:46 GMT 49.657459 8.652253 35,000 120 418 -64
2019-10-15 13:31:43 GMT 49.659973 8.645646 35,000 120 418 0
2019-10-15 13:31:40 GMT 49.666672 8.627809 35,000 120 418 -64
2019-10-15 13:31:37 GMT 49.666672 8.627809 35,025 119 418 -64
2019-10-15 13:31:34 GMT 49.669098 8.621376 35,025 119 418 -64
2019-10-15 13:31:31 GMT 49.672958 8.611054 35,025 119 418 0
2019-10-15 13:31:27 GMT 49.679199 8.594352 35,025 119 418 0
2019-10-15 13:31:24 GMT 49.679199 8.594352 35,025 119 418 0
2019-10-15 13:31:18 GMT 49.687439 8.572305 35,025 120 417 0
2019-10-15 13:31:15 GMT 49.687439 8.572305 35,025 119 418 -64
2019-10-15 13:31:12 GMT 49.691071 8.562729 35,025 119 418 -64
2019-10-15 13:31:09 GMT 49.695911 8.549813 35,025 120 417 0
2019-10-15 13:31:03 GMT 49.702103 8.533341 35,025 120 417 64
2019-10-15 13:31:00 GMT 49.702103 8.533341 35,025 120 417 64
2019-10-15 13:30:54 GMT 49.708420 8.516500 35,025 120 417 64
2019-10-15 13:30:51 GMT 49.711166 8.509200 35,025 120 415 0
2019-10-15 13:30:48 GMT 49.715881 8.496589 35,000 120 417 0
2019-10-15 13:30:42 GMT 49.720093 8.485421 35,025 120 417 0
2019-10-15 13:30:39 GMT 49.722164 8.479886 35,025 120 417 64
2019-10-15 13:30:36 GMT 49.725845 8.470014 35,000 120 416 0
2019-10-15 13:30:33 GMT 49.727692 8.465183 35,000 120 417 64
2019-10-15 13:30:30 GMT 49.731106 8.456058 35,000 120 417 0
2019-10-15 13:30:27 GMT 49.733963 8.448342 35,000 120 416 0
2019-10-15 13:30:24 GMT 49.737259 8.439596 35,000 119 415 0
2019-10-15 13:30:21 GMT 49.740234 8.431718 35,000 120 415 0
2019-10-15 13:30:18 GMT 49.742203 8.426441 35,000 120 415 0
2019-10-15 13:30:14 GMT 49.746094 8.416047 35,000 120 415 0
2019-10-15 13:30:11 GMT 49.749115 8.408010 35,000 120 415 0
2019-10-15 13:30:08 GMT 49.751999 8.400204 35,000 119 415 0
2019-10-15 13:30:05 GMT 49.755310 8.391328 35,000 119 415 -64
2019-10-15 13:29:59 GMT 49.760853 8.376407 35,000 119 415 0
2019-10-15 13:29:56 GMT 49.764587 8.366450 35,025 119 415 0
2019-10-15 13:29:53 GMT 49.766579 8.361115 35,025 119 415 0
2019-10-15 13:29:50 GMT 49.769485 8.353223 35,025 119 415 0
2019-10-15 13:29:47 GMT 49.772415 8.345417 35,000 119 413 64
2019-10-15 13:29:44 GMT 49.775436 8.337322 35,000 119 413 64
2019-10-15 13:29:41 GMT 49.780243 8.324312 35,000 119 413 64
2019-10-15 13:29:35 GMT 49.786037 8.308708 35,000 119 413 0
2019-10-15 13:29:32 GMT 49.786037 8.308708 35,000 119 410 0
2019-10-15 13:29:29 GMT 49.790039 8.297944 35,000 119 413 0
2019-10-15 13:29:25 GMT 49.793015 8.289907 35,000 119 413 0
2019-10-15 13:29:22 GMT 49.795906 8.282207 35,000 119 413 0
2019-10-15 13:29:19 GMT 49.798466 8.275155 35,000 119 413 0
2019-10-15 13:29:16 GMT 49.802330 8.264762 35,000 119 412 0
2019-10-15 13:29:13 GMT 49.807774 8.250064 35,000 119 412 0
2019-10-15 13:29:10 GMT 49.807774 8.250064 35,000 119 412 0
2019-10-15 13:29:07 GMT 49.810707 8.242196 35,000 119 411 64
2019-10-15 13:29:04 GMT 49.815262 8.229844 35,000 119 411 64
2019-10-15 13:29:01 GMT 49.818512 8.221098 35,000 119 411 0
2019-10-15 13:28:58 GMT 49.818512 8.221098 35,000 119 411 64
2019-10-15 13:28:55 GMT 49.822113 8.211464 35,000 119 410 0
2019-10-15 13:28:51 GMT 49.825333 8.202812 35,000 119 410 0
2019-10-15 13:28:47 GMT 49.828766 8.193632 35,000 119 410 0
2019-10-15 13:28:44 GMT 49.834728 8.177614 35,000 119 409 0
2019-10-15 13:28:38 GMT 49.838501 8.167444 35,000 119 408 -64
2019-10-15 13:28:35 GMT 49.840530 8.161974 35,000 119 408 0
2019-10-15 13:28:29 GMT 49.847111 8.144284 35,000 119 408 -64
2019-10-15 13:28:26 GMT 49.849022 8.139162 35,000 119 408 -64
2019-10-15 13:28:23 GMT 49.851746 8.131834 35,025 119 408 -64
2019-10-15 13:28:20 GMT 49.855087 8.122872 35,025 119 408 -64
2019-10-15 13:28:17 GMT 49.857075 8.117486 35,025 119 408 -64
2019-10-15 13:28:13 GMT 49.860985 8.106871 35,025 119 411 -64
2019-10-15 13:28:10 GMT 49.864014 8.098659 35,025 119 417 64
2019-10-15 13:28:07 GMT 49.867722 8.088612 35,025 119 419 64
2019-10-15 13:28:03 GMT 49.873741 8.072205 35,025 119 414 0
2019-10-15 13:28:00 GMT 49.873741 8.072205 35,025 119 413 0
2019-10-15 13:27:57 GMT 49.876812 8.063742 35,025 119 414 0
2019-10-15 13:27:54 GMT 49.882118 8.049267 35,025 119 416 64
2019-10-15 13:27:48 GMT 49.885254 8.040619 35,000 119 419 64
2019-10-15 13:27:45 GMT 49.887707 8.033975 34,975 119 422 64
2019-10-15 13:27:42 GMT 49.889923 8.027753 34,975 119 424 0
2019-10-15 13:27:39 GMT 49.893944 8.016679 34,975 119 425 64
2019-10-15 13:27:36 GMT 49.895851 8.011557 34,975 119 426 64
2019-10-15 13:27:33 GMT 49.899902 8.000432 35,000 119 427 0
2019-10-15 13:27:30 GMT 49.901459 7.996168 34,975 119 428 64
2019-10-15 13:27:27 GMT 49.905121 7.986265 34,975 119 428 0
2019-10-15 13:27:24 GMT 49.907913 7.978676 35,000 119 427 0
2019-10-15 13:27:21 GMT 49.910843 7.970581 35,000 119 427 0
2019-10-15 13:27:18 GMT 49.913773 7.962703 35,000 119 426 0
2019-10-15 13:27:15 GMT 49.916473 7.955215 35,000 119 428 0
2019-10-15 13:27:11 GMT 49.924576 7.933168 34,975 119 428 0
2019-10-15 13:27:07 GMT 49.924576 7.933168 34,975 119 426 0
2019-10-15 13:27:04 GMT 49.927002 7.926563 34,975 119 426 0
2019-10-15 13:27:01 GMT 49.931442 7.914565 34,975 119 428 0
2019-10-15 13:26:58 GMT 49.936111 7.901772 35,000 119 427 0
2019-10-15 13:26:55 GMT 49.936111 7.901772 34,975 119 426 0
2019-10-15 13:26:52 GMT 49.939133 7.893677 35,000 119 426 0
2019-10-15 13:26:49 GMT 49.941940 7.885957 35,000 119 426 0
2019-10-15 13:26:46 GMT 49.945663 7.875787 35,000 119 426 0
2019-10-15 13:26:43 GMT 49.947922 7.869753 35,000 119 426 0
2019-10-15 13:26:40 GMT 49.950760 7.861874 35,000 119 426 0
2019-10-15 13:26:37 GMT 49.953762 7.853740 35,000 119 426 0
2019-10-15 13:26:33 GMT 49.958744 7.840156 35,000 119 426 0
2019-10-15 13:26:29 GMT 49.962467 7.830060 35,000 119 410 960
2019-10-15 13:26:25 GMT 49.966370 7.819374 35,000 119 426 0
2019-10-15 13:26:22 GMT 49.968288 7.814100 35,000 119 426 0
2019-10-15 13:26:18 GMT 49.972229 7.803401 35,000 119 426 0
2019-10-15 13:26:14 GMT 49.976532 7.791620 35,000 119 427 0
2019-10-15 13:26:10 GMT 49.982346 7.775648 35,000 119 427 -64
2019-10-15 13:26:07 GMT 49.982346 7.775648 35,000 119 427 -64
2019-10-15 13:26:04 GMT 49.985870 7.765888 35,000 119 427 0
2019-10-15 13:26:01 GMT 49.989746 7.755308 35,000 119 427 0
2019-10-15 13:25:57 GMT 49.991821 7.749553 35,000 119 427 0
2019-10-15 13:25:54 GMT 49.995335 7.740017 35,000 119 427 0
2019-10-15 13:25:51 GMT 49.998322 7.731773 35,000 119 427 0
2019-10-15 13:25:48 GMT 50.004414 7.715000 35,000 119 426 0
2019-10-15 13:25:42 GMT 50.007385 7.706837 35,000 119 426 0
2019-10-15 13:25:39 GMT 50.010277 7.698818 35,000 119 426 0
2019-10-15 13:25:36 GMT 50.012970 7.691369 35,000 119 426 0
2019-10-15 13:25:32 GMT 50.016541 7.681539 35,000 119 426 0
2019-10-15 13:25:29 GMT 50.019287 7.674022 35,000 119 426 0
2019-10-15 13:25:25 GMT 50.022812 7.664265 35,000 119 426 0
2019-10-15 13:25:22 GMT 50.026291 7.654650 35,000 119 426 0
2019-10-15 13:25:19 GMT 50.029037 7.646990 35,000 119 426 0
2019-10-15 13:25:16 GMT 50.032993 7.636092 35,000 119 426 0
2019-10-15 13:25:13 GMT 50.035309 7.629716 35,000 119 426 0
2019-10-15 13:25:10 GMT 50.039291 7.618802 35,000 119 426 0
2019-10-15 13:25:07 GMT 50.040211 7.616272 35,000 119 426 0
2019-10-15 13:25:04 GMT 50.043732 7.606442 35,000 119 427 0
2019-10-15 13:25:01 GMT 50.047028 7.597407 35,000 119 426 0
2019-10-15 13:24:58 GMT 50.052689 7.581828 35,000 119 426 0
2019-10-15 13:24:52 GMT 50.054783 7.576038 35,000 119 426 64
2019-10-15 13:24:49 GMT 50.059158 7.563942 35,000 119 425 0
2019-10-15 13:24:46 GMT 50.061676 7.557004 35,000 119 425 0
2019-10-15 13:24:43 GMT 50.067490 7.540927 35,000 119 425 0
2019-10-15 13:24:40 GMT 50.070656 7.532093 35,000 119 425 0
2019-10-15 13:24:34 GMT 50.075043 7.520069 34,950 119 410 960
2019-10-15 13:24:31 GMT 50.076004 7.517323 35,000 119 423 0
2019-10-15 13:24:28 GMT 50.079174 7.508561 35,000 119 422 0
2019-10-15 13:24:25 GMT 50.081955 7.500916 35,000 119 422 0
2019-10-15 13:24:22 GMT 50.084061 7.495061 35,000 119 421 0
2019-10-15 13:24:19 GMT 50.087742 7.484956 35,000 119 415 0
2019-10-15 13:24:16 GMT 50.094025 7.467660 35,000 119 418 0
2019-10-15 13:24:12 GMT 50.094025 7.467660 35,000 119 417 0
2019-10-15 13:24:09 GMT 50.097290 7.458633 35,000 119 416 0
2019-10-15 13:24:06 GMT 50.099659 7.452071 35,000 119 415 0
2019-10-15 13:24:03 GMT 50.102684 7.443831 35,000 119 415 0
2019-10-15 13:24:00 GMT 50.105057 7.437150 35,000 119 414 0
2019-10-15 13:23:57 GMT 50.107315 7.430950 34,900 119 409 448
2019-10-15 13:23:54 GMT 50.111023 7.420759 35,000 119 411 128
2019-10-15 13:23:50 GMT 50.115326 7.408760 34,975 119 410 192
2019-10-15 13:23:47 GMT 50.117615 7.402400 34,500 119 410 320
2019-10-15 13:23:44 GMT 50.120361 7.394811 34,950 119 409 576
2019-10-15 13:23:41 GMT 50.122971 7.387511 34,950 119 409 576
2019-10-15 13:23:38 GMT 50.128147 7.373162 34,900 119 409 768
2019-10-15 13:23:35 GMT 50.128147 7.373162 34,875 119 409 960
2019-10-15 13:23:32 GMT 50.131687 7.363364 34,750 119 409 1024
2019-10-15 13:23:29 GMT 50.134151 7.356460 34,725 119 409 1024
2019-10-15 13:23:26 GMT 50.137207 7.347974 34,700 119 409 1024
2019-10-15 13:23:23 GMT 50.139496 7.341686 34,650 119 410 1024
2019-10-15 13:23:20 GMT 50.142838 7.332362 34,600 119 410 1024
2019-10-15 13:23:17 GMT 50.145447 7.325134 34,425 119 411 960
2019-10-15 13:23:14 GMT 50.148605 7.316244 34,500 119 410 960
2019-10-15 13:23:10 GMT 50.151077 7.309378 34,450 119 410 960
2019-10-15 13:23:07 GMT 50.153732 7.302077 34,225 119 411 960
2019-10-15 13:23:04 GMT 50.157440 7.291742 34,325 119 410 960
2019-10-15 13:23:01 GMT 50.159523 7.285866 34,300 119 410 960
2019-10-15 13:22:57 GMT 50.162933 7.276419 34,250 119 410 960
2019-10-15 13:22:54 GMT 50.166229 7.267159 34,175 119 410 960
2019-10-15 13:22:50 GMT 50.170742 7.254540 34,100 119 411 960
2019-10-15 13:22:47 GMT 50.172089 7.250760 33,875 119 411 1088
2019-10-15 13:22:44 GMT 50.175400 7.241401 33,750 119 411 1152
2019-10-15 13:22:41 GMT 50.178406 7.232979 33,975 119 411 1088
2019-10-15 13:22:38 GMT 50.180286 7.227742 33,950 119 411 1152
2019-10-15 13:22:35 GMT 50.183487 7.218740 33,875 118 412 1152
2019-10-15 13:22:32 GMT 50.187241 7.208260 33,800 118 413 1088
2019-10-15 13:22:29 GMT 50.189831 7.201018 33,750 118 413 1088
2019-10-15 13:22:24 GMT 50.193695 7.190032 33,625 118 413 1088
2019-10-15 13:22:21 GMT 50.196487 7.182240 33,625 118 414 1024
2019-10-15 13:22:18 GMT 50.199738 7.173060 33,550 118 419 1088
2019-10-15 13:22:14 GMT 50.203812 7.161496 33,425 118 418 1024
2019-10-15 13:22:11 GMT 50.206589 7.153658 33,400 118 420 1152
2019-10-15 13:22:08 GMT 50.208755 7.147618 33,400 118 420 1152
2019-10-15 13:22:05 GMT 50.210724 7.142053 33,150 118 427 1664
2019-10-15 13:22:02 GMT 50.214596 7.131166 33,125 118 425 1344
2019-10-15 13:21:59 GMT 50.217014 7.124337 33,125 118 425 1344
2019-10-15 13:21:55 GMT 50.220795 7.113720 33,125 119 427 1152
2019-10-15 13:21:52 GMT 50.224594 7.102950 32,750 119 428 896
2019-10-15 13:21:49 GMT 50.226746 7.096945 32,975 119 427 1024
2019-10-15 13:21:46 GMT 50.229630 7.088856 32,900 118 428 768
2019-10-15 13:21:43 GMT 50.232925 7.079532 32,875 118 428 704
2019-10-15 13:21:37 GMT 50.237640 7.066233 32,825 118 428 704
2019-10-15 13:21:33 GMT 50.242992 7.051144 32,775 118 427 512
2019-10-15 13:21:30 GMT 50.244873 7.045850 31,200 118 434 896
2019-10-15 13:21:27 GMT 50.247601 7.038154 32,725 118 434 1088
2019-10-15 13:21:24 GMT 50.250534 7.029914 32,650 118 426 960
2019-10-15 13:21:21 GMT 50.256351 7.013286 32,575 118 426 1024
2019-10-15 13:21:18 GMT 50.256351 7.013286 32,375 118 428 1728
2019-10-15 13:21:14 GMT 50.259892 7.003265 32,375 118 426 1408
2019-10-15 13:21:11 GMT 50.266434 6.984630 32,400 118 427 1664
2019-10-15 13:21:08 GMT 50.271835 6.969163 31,800 118 434 1088
2019-10-15 13:21:02 GMT 50.271835 6.969163 32,125 118 434 960
2019-10-15 13:20:59 GMT 50.274323 6.962066 31,975 118 432 1216
2019-10-15 13:20:56 GMT 50.276779 6.955068 31,975 118 431 1344
2019-10-15 13:20:53 GMT 50.280396 6.944805 31,925 118 431 1280
2019-10-15 13:20:50 GMT 50.283188 6.936854 31,900 118 432 1216
2019-10-15 13:20:47 GMT 50.286285 6.928068 31,750 118 432 1216
2019-10-15 13:20:41 GMT 50.291977 6.911918 31,675 118 433 1280
2019-10-15 13:20:38 GMT 50.293945 6.906353 31,625 118 433 1280
2019-10-15 13:20:35 GMT 50.297180 6.897113 31,600 118 434 1088
2019-10-15 13:20:32 GMT 50.300159 6.888650 31,525 118 433 1280
2019-10-15 13:20:29 GMT 50.303185 6.880040 31,500 118 433 1280
2019-10-15 13:20:26 GMT 50.310425 6.859444 31,250 118 434 1024
2019-10-15 13:20:22 GMT 50.310425 6.859444 31,150 118 434 960
2019-10-15 13:20:19 GMT 50.312916 6.852425 31,250 118 434 1024
2019-10-15 13:20:16 GMT 50.315475 6.845151 31,225 118 429 896
2019-10-15 13:20:13 GMT 50.319710 6.833125 31,175 118 434 896
2019-10-15 13:20:10 GMT 50.322144 6.826124 31,150 118 434 960
2019-10-15 13:20:07 GMT 50.324181 6.820357 31,000 118 434 896
2019-10-15 13:20:03 GMT 50.328278 6.808703 31,050 118 435 1024
2019-10-15 13:20:00 GMT 50.331024 6.800908 31,000 118 435 1024
2019-10-15 13:19:57 GMT 50.334187 6.791926 30,725 118 434 960
2019-10-15 13:19:54 GMT 50.337158 6.783479 30,875 118 434 896
2019-10-15 13:19:51 GMT 50.340008 6.775447 30,700 118 434 704
2019-10-15 13:19:48 GMT 50.343109 6.766566 30,800 118 434 896
2019-10-15 13:19:45 GMT 50.345673 6.759194 30,725 118 434 896
2019-10-15 13:19:42 GMT 50.349037 6.749688 30,700 118 429 896
2019-10-15 13:19:39 GMT 50.354904 6.732986 30,650 118 434 832
2019-10-15 13:19:36 GMT 50.354904 6.732986 30,600 118 434 640
2019-10-15 13:19:33 GMT 50.357651 6.725043 30,450 118 434 704
2019-10-15 13:19:30 GMT 50.360275 6.717561 30,550 118 433 640
2019-10-15 13:19:27 GMT 50.362427 6.711418 30,475 118 432 512
2019-10-15 13:19:24 GMT 50.365517 6.702551 30,475 118 431 448
2019-10-15 13:19:21 GMT 50.368824 6.693123 30,475 118 431 512
2019-10-15 13:19:18 GMT 50.375572 6.673675 30,400 118 431 1024
2019-10-15 13:19:15 GMT 50.375572 6.673675 30,350 118 431 1088
2019-10-15 13:19:11 GMT 50.378460 6.665361 30,200 118 431 1216
2019-10-15 13:19:08 GMT 50.382202 6.654679 30,200 118 431 1344
2019-10-15 13:19:05 GMT 50.384560 6.647842 30,125 118 431 640
2019-10-15 13:19:02 GMT 50.387833 6.638489 30,175 118 431 1216
2019-10-15 13:18:59 GMT 50.389866 6.632699 30,025 118 431 640
2019-10-15 13:18:54 GMT 50.394333 6.619841 30,050 118 431 640
2019-10-15 13:18:51 GMT 50.396893 6.612508 29,850 118 428 896
2019-10-15 13:18:48 GMT 50.400291 6.602783 29,900 118 430 704
2019-10-15 13:18:45 GMT 50.402985 6.595049 29,925 118 429 768
2019-10-15 13:18:42 GMT 50.406235 6.585581 29,900 118 429 832
2019-10-15 13:18:38 GMT 50.410393 6.573759 29,275 118 427 960
2019-10-15 13:18:35 GMT 50.412907 6.566558 29,650 118 429 896
2019-10-15 13:18:32 GMT 50.415756 6.558260 29,750 118 429 896
2019-10-15 13:18:28 GMT 50.422451 6.539092 29,000 118 414 1472
2019-10-15 13:18:25 GMT 50.422451 6.539092 29,600 118 428 896
2019-10-15 13:18:22 GMT 50.425964 6.528915 29,600 118 428 960
2019-10-15 13:18:18 GMT 50.428410 6.521945 29,525 118 427 960
2019-10-15 13:18:14 GMT 50.433014 6.508604 29,325 118 427 960
2019-10-15 13:18:11 GMT 50.435532 6.501457 29,425 118 427 960
2019-10-15 13:18:07 GMT 50.439331 6.490390 29,375 118 427 1024
2019-10-15 13:18:04 GMT 50.442535 6.481066 29,300 118 427 1088
2019-10-15 13:18:01 GMT 50.445145 6.473549 29,250 118 427 1152
2019-10-15 13:17:56 GMT 50.449825 6.460035 29,150 118 427 960
2019-10-15 13:17:52 GMT 50.452789 6.451360 29,025 118 427 960
2019-10-15 13:17:49 GMT 50.455597 6.443407 29,050 118 427 960
2019-10-15 13:17:46 GMT 50.458435 6.435093 29,025 118 427 960
2019-10-15 13:17:43 GMT 50.461555 6.426111 28,950 118 426 960
2019-10-15 13:17:40 GMT 50.464966 6.416232 28,900 118 425 896
2019-10-15 13:17:36 GMT 50.467838 6.407850 28,800 118 426 896
2019-10-15 13:17:33 GMT 50.472031 6.395750 28,800 118 424 768
2019-10-15 13:17:30 GMT 50.473846 6.390480 28,775 118 425 768
2019-10-15 13:17:25 GMT 50.478745 6.376335 28,625 118 423 832
2019-10-15 13:17:22 GMT 50.481247 6.369101 28,625 118 423 832
2019-10-15 13:17:19 GMT 50.483665 6.362123 28,600 118 421 1280
2019-10-15 13:17:16 GMT 50.486847 6.352917 28,525 118 421 832
2019-10-15 13:17:13 GMT 50.489227 6.345978 28,500 118 421 1472
2019-10-15 13:17:10 GMT 50.495117 6.329016 28,400 118 422 1536
2019-10-15 13:17:04 GMT 50.497635 6.321667 28,275 118 422 1408
2019-10-15 13:17:01 GMT 50.500610 6.313130 28,125 118 414 1600
2019-10-15 13:16:58 GMT 50.503464 6.304779 27,925 118 418 832
2019-10-15 13:16:55 GMT 50.507309 6.293720 27,875 118 421 768
2019-10-15 13:16:49 GMT 50.512939 6.277386 28,050 118 419 768
2019-10-15 13:16:46 GMT 50.514717 6.272303 27,825 121 412 1344
2019-10-15 13:16:43 GMT 50.516720 6.266438 27,925 118 418 896
2019-10-15 13:16:39 GMT 50.522003 6.251148 27,875 118 415 1152
2019-10-15 13:16:36 GMT 50.523842 6.245876 27,800 118 416 1088
2019-10-15 13:16:33 GMT 50.526581 6.237849 27,800 118 416 1024
2019-10-15 13:16:29 GMT 50.532806 6.219780 27,625 118 415 1216
2019-10-15 13:16:23 GMT 50.535416 6.212118 27,625 118 415 1216
2019-10-15 13:16:19 GMT 50.540222 6.198096 27,375 118 414 1472
2019-10-15 13:16:13 GMT 50.544510 6.185377 27,350 117 415 1664
2019-10-15 13:16:10 GMT 50.548374 6.173945 27,225 117 415 1664
2019-10-15 13:16:07 GMT 50.550201 6.168606 27,200 117 415 1664
2019-10-15 13:16:03 GMT 50.553543 6.158653 26,975 117 416 1600
2019-10-15 13:16:00 GMT 50.559586 6.140707 26,975 117 416 1536
2019-10-15 13:15:57 GMT 50.559586 6.140707 26,925 117 416 1536
2019-10-15 13:15:54 GMT 50.562515 6.131889 26,750 117 416 1472
2019-10-15 13:15:51 GMT 50.563969 6.127625 26,750 117 416 1472
2019-10-15 13:15:47 GMT 50.567974 6.115599 26,175 126 408 1216
2019-10-15 13:15:44 GMT 50.570663 6.107459 26,575 117 416 1600
2019-10-15 13:15:41 GMT 50.573139 6.099936 26,475 117 416 1600
2019-10-15 13:15:38 GMT 50.576214 6.090805 26,400 117 415 1536
2019-10-15 13:15:35 GMT 50.579269 6.081728 26,350 118 415 1472
2019-10-15 13:15:31 GMT 50.582314 6.073064 26,250 121 412 1344
2019-10-15 13:15:28 GMT 50.585754 6.064379 26,225 123 411 1280
2019-10-15 13:15:25 GMT 50.589619 6.055545 26,125 128 406 1216
2019-10-15 13:15:22 GMT 50.593048 6.048552 26,100 128 406 1216
2019-10-15 13:15:19 GMT 50.596512 6.042184 26,025 132 402 1088
2019-10-15 13:15:16 GMT 50.600094 6.036022 25,950 136 399 1088
2019-10-15 13:15:13 GMT 50.603306 6.030900 25,825 138 397 1088
2019-10-15 13:15:10 GMT 50.608200 6.023833 25,400 154 387 1152
2019-10-15 13:15:07 GMT 50.611500 6.019469 25,700 153 388 1152
2019-10-15 13:15:04 GMT 50.616482 6.013382 25,725 146 392 1344
2019-10-15 13:15:01 GMT 50.619141 6.010389 25,400 154 387 1152
2019-10-15 13:14:58 GMT 50.624176 6.005185 25,650 147 391 1344
2019-10-15 13:14:55 GMT 50.630219 5.999547 25,550 154 387 1152
2019-10-15 13:14:51 GMT 50.636490 5.994488 25,500 154 387 1152
2019-10-15 13:14:47 GMT 50.642395 5.990368 25,425 159 385 1216
2019-10-15 13:14:44 GMT 50.647392 5.987326 25,350 163 383 1536
2019-10-15 13:14:41 GMT 50.654114 5.983790 25,250 163 383 1536
2019-10-15 13:14:38 GMT 50.658417 5.981767 25,175 164 383 1536
2019-10-15 13:14:35 GMT 50.663177 5.979598 25,000 164 383 1600
2019-10-15 13:14:32 GMT 50.667526 5.977719 25,075 164 383 1600
2019-10-15 13:14:29 GMT 50.677734 5.973148 24,925 164 383 1600
2019-10-15 13:14:23 GMT 50.682678 5.970921 24,700 164 383 1600
2019-10-15 13:14:20 GMT 50.688721 5.968249 24,725 164 383 1408
2019-10-15 13:14:16 GMT 50.693665 5.965958 24,600 164 382 1152
2019-10-15 13:14:13 GMT 50.700275 5.963058 24,600 164 382 960
2019-10-15 13:14:10 GMT 50.711700 5.957930 24,450 164 380 960
2019-10-15 13:14:07 GMT 50.711700 5.957930 24,425 164 380 960
2019-10-15 13:14:03 GMT 50.716919 5.955555 24,425 164 379 960
2019-10-15 13:14:00 GMT 50.722015 5.953293 24,350 164 378 960
2019-10-15 13:13:57 GMT 50.729004 5.950210 24,275 164 376 1024
2019-10-15 13:13:54 GMT 50.731510 5.949020 24,275 164 377 960
2019-10-15 13:13:51 GMT 50.742828 5.944049 24,175 164 375 1024
2019-10-15 13:13:48 GMT 50.742828 5.944049 24,125 164 374 1024
2019-10-15 13:13:45 GMT 50.748642 5.941451 24,075 164 373 1024
2019-10-15 13:13:42 GMT 50.753448 5.939298 24,050 164 371 1024
2019-10-15 13:13:39 GMT 50.758045 5.937271 24,000 164 369 1024
2019-10-15 13:13:36 GMT 50.762787 5.935141 24,000 164 371 1024
2019-10-15 13:13:33 GMT 50.766705 5.933456 23,900 164 369 1024
2019-10-15 13:13:30 GMT 50.771301 5.931429 23,850 164 366 1024
2019-10-15 13:13:27 GMT 50.783798 5.925862 23,600 164 366 1024
2019-10-15 13:13:23 GMT 50.783798 5.925862 23,675 164 366 1024
2019-10-15 13:13:20 GMT 50.788445 5.923767 23,525 164 363 1024
2019-10-15 13:13:16 GMT 50.795380 5.920715 23,400 164 356 896
2019-10-15 13:13:11 GMT 50.802246 5.917697 23,525 164 361 1024
2019-10-15 13:13:08 GMT 50.808277 5.915070 23,400 164 356 896
2019-10-15 13:13:05 GMT 50.813828 5.912575 23,400 164 356 896
2019-10-15 13:13:02 GMT 50.817402 5.911026 23,350 164 357 960
2019-10-15 13:12:59 GMT 50.821289 5.909308 23,350 164 357 960
2019-10-15 13:12:55 GMT 50.827503 5.906525 23,275 164 356 896
2019-10-15 13:12:52 GMT 50.832996 5.904160 23,250 164 354 960
2019-10-15 13:12:49 GMT 50.837585 5.902034 23,050 164 346 1152
2019-10-15 13:12:46 GMT 50.843983 5.899200 23,075 164 350 960
2019-10-15 13:12:42 GMT 50.849102 5.896912 23,050 164 349 1088
2019-10-15 13:12:39 GMT 50.853710 5.894852 22,950 164 347 1152
2019-10-15 13:12:36 GMT 50.858318 5.892792 22,950 164 348 1152
2019-10-15 13:12:33 GMT 50.864410 5.890082 22,850 163 346 1216
2019-10-15 13:12:30 GMT 50.866104 5.889266 22,850 163 345 1280
2019-10-15 13:12:27 GMT 50.873589 5.885849 22,750 163 344 1408
2019-10-15 13:12:24 GMT 50.876633 5.884441 22,700 163 343 1600
2019-10-15 13:12:21 GMT 50.880386 5.882733 22,525 163 342 1600
2019-10-15 13:12:18 GMT 50.887161 5.879616 22,500 163 342 1600
2019-10-15 13:12:15 GMT 50.890163 5.878220 22,325 163 343 1664
2019-10-15 13:12:12 GMT 50.895447 5.875756 22,275 163 341 1792
2019-10-15 13:12:06 GMT 50.903961 5.871821 22,125 164 342 1856
2019-10-15 13:12:03 GMT 50.908035 5.870040 22,050 177 341 1920
2019-10-15 13:12:00 GMT 50.913986 5.867738 22,025 167 341 1920
2019-10-15 13:11:57 GMT 50.918793 5.866402 21,875 172 340 1984
2019-10-15 13:11:54 GMT 50.922516 5.865631 21,775 177 341 1920
2019-10-15 13:11:51 GMT 50.927628 5.865215 21,350 180 341 1856
2019-10-15 13:11:48 GMT 50.938202 5.866013 21,575 185 341 1728
2019-10-15 13:11:44 GMT 50.938202 5.866013 21,500 189 341 1792
2019-10-15 13:11:41 GMT 50.943184 5.867233 21,000 196 344 2624
2019-10-15 13:11:38 GMT 50.946854 5.868481 21,300 195 343 2304
2019-10-15 13:11:34 GMT 50.953583 5.871153 21,150 196 344 2624
2019-10-15 13:11:30 GMT 50.959942 5.873947 20,850 196 345 3008
2019-10-15 13:11:27 GMT 50.963528 5.875549 20,850 196 346 3072
2019-10-15 13:11:23 GMT 50.972000 5.879288 20,250 196 349 2112
2019-10-15 13:11:20 GMT 50.975006 5.880581 20,450 196 349 2368
2019-10-15 13:11:17 GMT 50.978889 5.882263 20,325 196 349 2496
2019-10-15 13:11:14 GMT 50.985546 5.885239 19,325 196 351 2816
2019-10-15 13:11:11 GMT 50.990112 5.887187 20,150 196 349 2304
2019-10-15 13:11:08 GMT 50.994598 5.889191 19,275 196 350 2752
2019-10-15 13:11:05 GMT 50.999588 5.891418 19,900 196 352 2816
2019-10-15 13:11:02 GMT 51.003422 5.893097 19,825 196 351 2816
2019-10-15 13:10:59 GMT 51.007847 5.895081 19,625 196 352 2688
2019-10-15 13:10:56 GMT 51.013229 5.897505 19,425 196 353 2176
2019-10-15 13:10:53 GMT 51.018036 5.899658 19,325 196 353 2048
2019-10-15 13:10:50 GMT 51.022045 5.901413 19,000 196 352 1600
2019-10-15 13:10:47 GMT 51.027603 5.903964 19,225 197 350 64
2019-10-15 13:10:41 GMT 51.036163 5.907824 19,000 197 350 960
2019-10-15 13:10:37 GMT 51.042664 5.910793 19,025 197 350 0
2019-10-15 13:10:34 GMT 51.047379 5.912946 19,025 197 350 0
2019-10-15 13:10:31 GMT 51.052185 5.915173 19,025 197 350 0
2019-10-15 13:10:28 GMT 51.055939 5.916880 19,025 197 350 0
2019-10-15 13:10:25 GMT 51.060452 5.918961 19,000 197 350 64
2019-10-15 13:10:21 GMT 51.071869 5.924229 19,000 191 350 -64
2019-10-15 13:10:18 GMT 51.071869 5.924229 18,975 196 350 192
2019-10-15 13:10:15 GMT 51.076927 5.926514 19,000 186 348 0
2019-10-15 13:10:12 GMT 51.080093 5.927811 18,975 194 350 128
2019-10-15 13:10:09 GMT 51.086929 5.930168 18,975 189 350 -128
2019-10-15 13:10:06 GMT 51.092148 5.931355 18,975 183 346 0
2019-10-15 13:10:03 GMT 51.095444 5.931726 19,000 183 346 0
2019-10-15 13:09:59 GMT 51.101303 5.931875 19,000 177 343 0
2019-10-15 13:09:56 GMT 51.106491 5.931473 18,850 172 322 960
2019-10-15 13:09:53 GMT 51.111374 5.930613 18,975 172 337 192
2019-10-15 13:09:50 GMT 51.120224 5.928726 18,900 172 329 704
2019-10-15 13:09:47 GMT 51.120224 5.928726 18,925 172 331 512
2019-10-15 13:09:44 GMT 51.126320 5.927353 18,900 172 328 1024
2019-10-15 13:09:41 GMT 51.130604 5.926437 18,825 172 326 1024
2019-10-15 13:09:38 GMT 51.135120 5.925446 18,750 172 324 960
2019-10-15 13:09:35 GMT 51.138153 5.924823 18,775 172 324 1024
2019-10-15 13:09:32 GMT 51.143497 5.923615 18,700 172 321 960
2019-10-15 13:09:28 GMT 51.149319 5.922394 18,650 172 319 960
2019-10-15 13:09:25 GMT 51.153030 5.921631 18,625 172 317 960
2019-10-15 13:09:21 GMT 51.160400 5.920072 18,525 172 313 1024
2019-10-15 13:09:18 GMT 51.164867 5.919113 18,450 172 310 1024
2019-10-15 13:09:14 GMT 51.170151 5.918068 18,425 172 310 1024
2019-10-15 13:09:11 GMT 51.172359 5.917587 18,375 172 307 1088
2019-10-15 13:09:08 GMT 51.177063 5.916595 18,300 172 300 1216
2019-10-15 13:09:05 GMT 51.187443 5.914459 18,200 172 302 1152
2019-10-15 13:09:02 GMT 51.187443 5.914459 18,175 172 299 1216
2019-10-15 13:08:59 GMT 51.194229 5.913168 18,075 172 299 1216
2019-10-15 13:08:56 GMT 51.198757 5.912247 18,025 172 296 1344
2019-10-15 13:08:53 GMT 51.198757 5.912247 18,000 172 296 1344
2019-10-15 13:08:50 GMT 51.201736 5.911684 17,950 172 296 1344
2019-10-15 13:08:47 GMT 51.206451 5.910719 17,900 172 294 1472
2019-10-15 13:08:44 GMT 51.215332 5.908937 17,725 172 291 1664
2019-10-15 13:08:41 GMT 51.215332 5.908937 17,675 172 291 1728
2019-10-15 13:08:36 GMT 51.222702 5.907453 17,525 172 288 1728
2019-10-15 13:08:30 GMT 51.228828 5.905991 17,350 153 286 2048
2019-10-15 13:08:27 GMT 51.232727 5.904706 17,225 163 286 1408
2019-10-15 13:08:24 GMT 51.236603 5.902939 17,225 163 286 1408
2019-10-15 13:08:21 GMT 51.241516 5.899881 16,300 146 288 2560
2019-10-15 13:08:18 GMT 51.243988 5.897951 17,125 151 285 2176
2019-10-15 13:08:15 GMT 51.250942 5.890884 16,875 144 289 2560
2019-10-15 13:08:12 GMT 51.254620 5.885925 16,725 137 292 2816
2019-10-15 13:08:08 GMT 51.254620 5.885925 16,625 135 294 2816
2019-10-15 13:08:05 GMT 51.257492 5.881323 16,500 125 300 2496
2019-10-15 13:08:02 GMT 51.264534 5.866699 15,950 124 299 2240
2019-10-15 13:07:57 GMT 51.264534 5.866699 15,650 124 299 2304
2019-10-15 13:07:54 GMT 51.267094 5.860748 15,950 124 299 2304
2019-10-15 13:07:51 GMT 51.272232 5.848884 15,700 124 299 2176
2019-10-15 13:07:48 GMT 51.272232 5.848884 15,775 124 299 2176
2019-10-15 13:07:45 GMT 51.273743 5.845395 14,850 124 299 2176
2019-10-15 13:07:42 GMT 51.275616 5.840988 15,475 124 298 2304
2019-10-15 13:07:39 GMT 51.278458 5.834483 15,400 124 297 2432
2019-10-15 13:07:36 GMT 51.280746 5.829064 15,425 124 297 2432
2019-10-15 13:07:33 GMT 51.286461 5.815887 15,200 124 297 2240
2019-10-15 13:07:29 GMT 51.286461 5.815887 13,900 124 279 2240
2019-10-15 13:07:26 GMT 51.289261 5.809392 14,975 124 294 1536
2019-10-15 13:07:22 GMT 51.291595 5.803973 14,725 124 289 1664
2019-10-15 13:07:19 GMT 51.293629 5.799179 14,850 124 291 1536
2019-10-15 13:07:16 GMT 51.296608 5.792313 14,750 124 289 1728
2019-10-15 13:07:13 GMT 51.298332 5.788345 14,625 124 287 1920
2019-10-15 13:07:10 GMT 51.301437 5.781110 14,500 124 286 1984
2019-10-15 13:07:07 GMT 51.302940 5.777588 14,475 124 284 1984
2019-10-15 13:07:04 GMT 51.305126 5.772476 14,375 124 284 1984
2019-10-15 13:07:01 GMT 51.306992 5.768204 14,250 124 282 2048
2019-10-15 13:06:56 GMT 51.311646 5.757281 14,125 124 282 2048
2019-10-15 13:06:53 GMT 51.313568 5.752827 14,050 124 281 2112
2019-10-15 13:06:50 GMT 51.315414 5.748520 13,900 124 279 2304
2019-10-15 13:06:47 GMT 51.320526 5.736645 13,725 124 272 2496
2019-10-15 13:06:44 GMT 51.320526 5.736645 13,425 124 277 2240
2019-10-15 13:06:41 GMT 51.321655 5.734100 13,525 124 276 2304
2019-10-15 13:06:38 GMT 51.324921 5.726475 13,075 124 276 2368
2019-10-15 13:06:35 GMT 51.327148 5.721283 13,275 124 275 2496
2019-10-15 13:06:32 GMT 51.328636 5.717850 13,175 124 275 2560
2019-10-15 13:06:29 GMT 51.331512 5.711183 13,000 124 273 2368
2019-10-15 13:06:26 GMT 51.332642 5.708618 12,875 124 272 2432
2019-10-15 13:06:23 GMT 51.335526 5.701981 12,500 124 272 2432
2019-10-15 13:06:20 GMT 51.337418 5.697599 12,575 124 272 2496
2019-10-15 13:06:17 GMT 51.340118 5.691512 12,525 125 271 2560
2019-10-15 13:06:13 GMT 51.342136 5.686951 10,100 90 261 2560
2019-10-15 13:06:10 GMT 51.345161 5.680084 12,200 125 269 2752
2019-10-15 13:06:07 GMT 51.349365 5.670727 12,000 125 269 3008
2019-10-15 13:06:04 GMT 51.349365 5.670727 11,300 90 274 1472
2019-10-15 13:06:00 GMT 51.354034 5.660409 11,650 126 269 3136
2019-10-15 13:05:57 GMT 51.354034 5.660409 11,575 125 270 3136
2019-10-15 13:05:54 GMT 51.356102 5.655746 10,725 98 280 1408
2019-10-15 13:05:51 GMT 51.358246 5.651130 11,175 124 271 2816
2019-10-15 13:05:47 GMT 51.361084 5.644523 11,075 118 274 2240
2019-10-15 13:05:44 GMT 51.363087 5.639191 10,925 116 275 2240
2019-10-15 13:05:41 GMT 51.364807 5.633392 10,900 111 276 1984
2019-10-15 13:05:37 GMT 51.366531 5.625297 10,725 102 279 1600
2019-10-15 13:05:34 GMT 51.367275 5.620041 10,675 98 280 1408
2019-10-15 13:05:31 GMT 51.367996 5.612009 10,625 94 279 1280
2019-10-15 13:05:27 GMT 51.368252 5.602570 10,350 90 269 1536
2019-10-15 13:05:23 GMT 51.368347 5.597305 10,425 90 274 1472
2019-10-15 13:05:20 GMT 51.368408 5.590482 10,375 90 270 1472
2019-10-15 13:05:17 GMT 51.368454 5.583356 10,275 90 266 1600
2019-10-15 13:05:14 GMT 51.368484 5.577469 10,075 90 261 2560
2019-10-15 13:05:10 GMT 51.368530 5.570297 10,075 90 261 2496
2019-10-15 13:05:04 GMT 51.368530 5.558929 9,475 89 265 1920
2019-10-15 13:05:01 GMT 51.368546 5.549506 9,625 89 264 1984
2019-10-15 13:04:55 GMT 51.368500 5.542009 9,550 89 265 1920
2019-10-15 13:04:52 GMT 51.368500 5.536664 9,375 89 266 2304
2019-10-15 13:04:49 GMT 51.368439 5.531693 9,100 88 267 2880
2019-10-15 13:04:46 GMT 51.368362 5.523451 8,725 88 266 2688
2019-10-15 13:04:43 GMT 51.368317 5.518551 8,725 88 266 2688
2019-10-15 13:04:40 GMT 51.368225 5.513281 8,775 88 265 2432
2019-10-15 13:04:37 GMT 51.368114 5.508347 8,750 87 263 2240
2019-10-15 13:04:34 GMT 51.367882 5.499649 8,625 85 258 2560
2019-10-15 13:04:31 GMT 51.367767 5.495836 8,575 86 260 2240
2019-10-15 13:04:27 GMT 51.367401 5.486335 8,375 85 258 2560
2019-10-15 13:04:22 GMT 51.366997 5.478592 7,725 78 259 3136
2019-10-15 13:04:19 GMT 51.366669 5.472641 6,300 81 258 3264
2019-10-15 13:04:16 GMT 51.366257 5.466589 7,700 83 257 3136
2019-10-15 13:04:13 GMT 51.365936 5.462432 7,075 80 259 3200
2019-10-15 13:04:10 GMT 51.365479 5.456642 7,575 82 258 3264
2019-10-15 13:04:07 GMT 51.364929 5.450332 7,375 81 258 3264
2019-10-15 13:04:04 GMT 51.364288 5.443726 7,300 80 259 3200
2019-10-15 13:04:01 GMT 51.363510 5.436302 7,000 79 260 3136
2019-10-15 13:03:57 GMT 51.363007 5.431848 6,875 79 259 3072
2019-10-15 13:03:54 GMT 51.362202 5.424957 6,775 78 259 3136
2019-10-15 13:03:51 GMT 51.361359 5.418264 6,525 78 259 3072
2019-10-15 13:03:48 GMT 51.360619 5.412216 6,350 78 259 3072
2019-10-15 13:03:45 GMT 51.360153 5.408478 6,175 81 257 3200
2019-10-15 13:03:40 GMT 51.358337 5.392990 5,675 80 257 3200
2019-10-15 13:03:37 GMT 51.358337 5.392990 5,175 93 250 2880
2019-10-15 13:03:33 GMT 51.357605 5.384711 5,575 85 254 2944
2019-10-15 13:03:30 GMT 51.356964 5.369642 4,350 88 253 2816
2019-10-15 13:03:24 GMT 51.356964 5.369642 5,175 93 250 2880
2019-10-15 13:03:19 GMT 51.357361 5.359497 4,925 98 248 2944
2019-10-15 13:03:15 GMT 51.358200 5.352643 4,775 105 245 3264
2019-10-15 13:03:12 GMT 51.358887 5.348783 4,475 115 242 3648
2019-10-15 13:03:09 GMT 51.362480 5.336685 4,325 116 242 3648
2019-10-15 13:03:06 GMT 51.362480 5.336685 4,150 124 241 3648
2019-10-15 13:02:57 GMT 51.370422 5.323321 3,650 141 238 3136
2019-10-15 13:02:54 GMT 51.370422 5.323321 3,550 145 237 3136
2019-10-15 13:02:48 GMT 51.377014 5.317531 3,175 162 233 3136
2019-10-15 13:02:45 GMT 51.380451 5.315704 2,850 168 232 3008
2019-10-15 13:02:41 GMT 51.385246 5.314331 2,800 185 226 2304
2019-10-15 13:02:37 GMT 51.387726 5.314117 2,700 183 228 2304
2019-10-15 13:02:33 GMT 51.392368 5.314713 2,575 188 225 2240
2019-10-15 13:02:30 GMT 51.395348 5.315781 2,450 200 219 1216
2019-10-15 13:02:26 GMT 51.398838 5.317917 2,400 207 212 512
2019-10-15 13:02:23 GMT 51.401676 5.320358 2,375 211 207 512
2019-10-15 13:02:16 GMT 51.407043 5.325919 2,275 214 194 896
2019-10-15 13:02:10 GMT 51.412170 5.331413 2,150 215 179 1024
2019-10-15 13:02:05 GMT 51.414711 5.334167 2,100 215 179 1024
2019-10-15 13:02:02 GMT 51.417252 5.336980 2,025 215 174 1152
2019-10-15 13:01:58 GMT 51.419556 5.339584 1,950 216 171 1216
2019-10-15 13:01:55 GMT 51.421417 5.341731 1,900 216 168 1408
2019-10-15 13:01:49 GMT 51.425537 5.346408 1,650 216 162 1472
2019-10-15 13:01:46 GMT 51.427979 5.349274 1,625 217 159 1792
2019-10-15 13:01:41 GMT 51.430401 5.352020 1,450 217 158 2880
2019-10-15 13:01:37 GMT 51.432728 5.354767 1,250 217 159 2944
2019-10-15 13:01:34 GMT 51.434143 5.356429 1,150 217 159 2880
2019-10-15 13:01:30 GMT 51.436981 5.359695 925 216 159 2880
2019-10-15 13:01:24 GMT 51.440506 5.363778 625 216 160 2752
2019-10-15 13:01:21 GMT 51.442703 5.366227 475 216 162 2432
2019-10-15 13:01:16 GMT 51.445450 5.369271 325 215 163 1472
2019-10-15 13:01:06 GMT 51.451767 5.376358 300 215 120 64
2019-10-15 13:00:48 GMT 51.457592 5.382911 0 213 54
2019-10-15 13:00:43 GMT 51.458588 5.383987 0 213 25
2019-10-15 13:00:37 GMT 51.458977 5.384433 0 213 0
2019-10-15 13:00:07 GMT 51.459007 5.384464 0 213 0
2019-10-15 12:59:57 GMT 51.459110 5.384502 0 239 5
2019-10-15 12:59:46 GMT 51.459194 5.384846 0 300 9
2019-10-15 12:59:34 GMT 51.458851 5.385676 0 306 13

Making use of Plane Finder data

You are free to use the raw flight data, aircraft information and images provided in this report for your own purposes provided the data is correctly attributed to Plane Finder. We ask that you please credit Plane Finder and link to planefinder.net in close proximity to the content.

Optionally one of the following logos (no smaller then 150x24px) can be used and must link to planefinder.net

Embedding the Plane Finder map

You are welcome to embed the Plane Finder playback map on your website to offer visitors a more interactive experience. We suggest using the following HTML code:

<iframe src="//planefinder.net/data/report/W61815-HA-LWC-7700-squawk-2019-10-15/map" width="800" height="600" seamless="seamless"></iframe>

Where our data comes from

Plane Finder has a global network of data feeds and antenna radars that receive data broadcast directly from aircraft. The primary technologies used are ADS-B and MLAT. We also show feeds from the FAA and a FLARM glider feed.

Click here to find out more about the Plane Finder network.

How we collect our data